<?xml version="1.0" encoding="UTF-8" standalone="no" ?>
<gpx xmlns="http://www.topografix.com/GPX/1/1" xmlns:xsi="http://www.w3.org/2001/XMLSchema-instance" xsi:schemaLocation="http://www.topografix.com/GPX/1/1 http://www.topografix.com/GPX/1/1/gpx.xsd" version="1.1" creator="VisuGPX - https://www.visugpx.com">
  <metadata>
    <name>trail utv 2019</name>
  </metadata>
  <trk>
    <name><![CDATA[20190505140806-Fbbn3]]></name>
    <trkseg>
      <trkpt lat="45.10271" lon="5.47354">
        <ele>817</ele>
        <time>2010-01-01T04:13:01Z</time>
      </trkpt>
      <trkpt lat="45.10281" lon="5.47357">
        <ele>816</ele>
        <time>2010-01-01T04:13:03Z</time>
      </trkpt>
      <trkpt lat="45.10294" lon="5.47362">
        <ele>815</ele>
        <time>2010-01-01T04:13:07Z</time>
      </trkpt>
      <trkpt lat="45.10303" lon="5.47366">
        <ele>814</ele>
        <time>2010-01-01T04:13:09Z</time>
      </trkpt>
      <trkpt lat="45.1031" lon="5.47368">
        <ele>814</ele>
        <time>2010-01-01T04:13:12Z</time>
      </trkpt>
      <trkpt lat="45.10321" lon="5.47373">
        <ele>814</ele>
        <time>2010-01-01T04:13:14Z</time>
      </trkpt>
      <trkpt lat="45.10334" lon="5.4738">
        <ele>815</ele>
        <time>2010-01-01T04:13:19Z</time>
      </trkpt>
      <trkpt lat="45.1035" lon="5.47388">
        <ele>815</ele>
        <time>2010-01-01T04:13:22Z</time>
      </trkpt>
      <trkpt lat="45.10362" lon="5.47395">
        <ele>815</ele>
        <time>2010-01-01T04:13:27Z</time>
      </trkpt>
      <trkpt lat="45.10373" lon="5.474">
        <ele>816</ele>
        <time>2010-01-01T04:13:30Z</time>
      </trkpt>
      <trkpt lat="45.10385" lon="5.47405">
        <ele>815</ele>
        <time>2010-01-01T04:13:33Z</time>
      </trkpt>
      <trkpt lat="45.10393" lon="5.47408">
        <ele>815</ele>
        <time>2010-01-01T04:13:35Z</time>
      </trkpt>
      <trkpt lat="45.10401" lon="5.47411">
        <ele>816</ele>
        <time>2010-01-01T04:13:37Z</time>
      </trkpt>
      <trkpt lat="45.10411" lon="5.47416">
        <ele>816</ele>
        <time>2010-01-01T04:13:40Z</time>
      </trkpt>
      <trkpt lat="45.10418" lon="5.47421">
        <ele>817</ele>
        <time>2010-01-01T04:13:42Z</time>
      </trkpt>
      <trkpt lat="45.10423" lon="5.47424">
        <ele>817</ele>
        <time>2010-01-01T04:13:46Z</time>
      </trkpt>
      <trkpt lat="45.10424" lon="5.4743">
        <ele>818</ele>
        <time>2010-01-01T04:13:50Z</time>
      </trkpt>
      <trkpt lat="45.10428" lon="5.47436">
        <ele>819</ele>
        <time>2010-01-01T04:13:52Z</time>
      </trkpt>
      <trkpt lat="45.10431" lon="5.47439">
        <ele>819</ele>
        <time>2010-01-01T04:13:55Z</time>
      </trkpt>
      <trkpt lat="45.10435" lon="5.47441">
        <ele>819</ele>
        <time>2010-01-01T04:13:58Z</time>
      </trkpt>
      <trkpt lat="45.1044" lon="5.47441">
        <ele>819</ele>
        <time>2010-01-01T04:14:00Z</time>
      </trkpt>
      <trkpt lat="45.10446" lon="5.47441">
        <ele>819</ele>
        <time>2010-01-01T04:14:03Z</time>
      </trkpt>
      <trkpt lat="45.10457" lon="5.47442">
        <ele>821</ele>
        <time>2010-01-01T04:14:06Z</time>
      </trkpt>
      <trkpt lat="45.10465" lon="5.47443">
        <ele>822</ele>
        <time>2010-01-01T04:14:10Z</time>
      </trkpt>
      <trkpt lat="45.1047" lon="5.47444">
        <ele>822</ele>
        <time>2010-01-01T04:14:13Z</time>
      </trkpt>
      <trkpt lat="45.10475" lon="5.47445">
        <ele>823</ele>
        <time>2010-01-01T04:14:17Z</time>
      </trkpt>
      <trkpt lat="45.10476" lon="5.47445">
        <ele>823</ele>
        <time>2010-01-01T04:14:20Z</time>
      </trkpt>
      <trkpt lat="45.1048" lon="5.47445">
        <ele>824</ele>
        <time>2010-01-01T04:14:23Z</time>
      </trkpt>
      <trkpt lat="45.10484" lon="5.47446">
        <ele>824</ele>
        <time>2010-01-01T04:14:29Z</time>
      </trkpt>
      <trkpt lat="45.10491" lon="5.47446">
        <ele>825</ele>
        <time>2010-01-01T04:14:34Z</time>
      </trkpt>
      <trkpt lat="45.10495" lon="5.47447">
        <ele>826</ele>
        <time>2010-01-01T04:14:36Z</time>
      </trkpt>
      <trkpt lat="45.10496" lon="5.47447">
        <ele>826</ele>
        <time>2010-01-01T04:14:37Z</time>
      </trkpt>
      <trkpt lat="45.105" lon="5.47446">
        <ele>827</ele>
        <time>2010-01-01T04:14:38Z</time>
      </trkpt>
      <trkpt lat="45.10504" lon="5.47445">
        <ele>828</ele>
        <time>2010-01-01T04:14:39Z</time>
      </trkpt>
      <trkpt lat="45.10508" lon="5.47444">
        <ele>829</ele>
        <time>2010-01-01T04:14:40Z</time>
      </trkpt>
      <trkpt lat="45.10509" lon="5.47444">
        <ele>829</ele>
        <time>2010-01-01T04:14:41Z</time>
      </trkpt>
      <trkpt lat="45.10511" lon="5.47441">
        <ele>829</ele>
        <time>2010-01-01T04:14:42Z</time>
      </trkpt>
      <trkpt lat="45.10514" lon="5.47438">
        <ele>830</ele>
        <time>2010-01-01T04:14:43Z</time>
      </trkpt>
      <trkpt lat="45.10514" lon="5.47436">
        <ele>830</ele>
        <time>2010-01-01T04:14:44Z</time>
      </trkpt>
      <trkpt lat="45.10516" lon="5.47434">
        <ele>830</ele>
        <time>2010-01-01T04:14:45Z</time>
      </trkpt>
      <trkpt lat="45.10518" lon="5.47429">
        <ele>831</ele>
        <time>2010-01-01T04:14:47Z</time>
      </trkpt>
      <trkpt lat="45.10519" lon="5.47423">
        <ele>831</ele>
        <time>2010-01-01T04:14:50Z</time>
      </trkpt>
      <trkpt lat="45.10523" lon="5.47404">
        <ele>831</ele>
        <time>2010-01-01T04:14:52Z</time>
      </trkpt>
      <trkpt lat="45.10525" lon="5.47398">
        <ele>831</ele>
        <time>2010-01-01T04:14:54Z</time>
      </trkpt>
      <trkpt lat="45.10527" lon="5.47394">
        <ele>832</ele>
        <time>2010-01-01T04:14:55Z</time>
      </trkpt>
      <trkpt lat="45.1053" lon="5.47391">
        <ele>832</ele>
        <time>2010-01-01T04:14:57Z</time>
      </trkpt>
      <trkpt lat="45.10533" lon="5.47389">
        <ele>832</ele>
        <time>2010-01-01T04:14:58Z</time>
      </trkpt>
      <trkpt lat="45.10536" lon="5.47388">
        <ele>833</ele>
        <time>2010-01-01T04:14:59Z</time>
      </trkpt>
      <trkpt lat="45.10539" lon="5.47388">
        <ele>833</ele>
        <time>2010-01-01T04:15:01Z</time>
      </trkpt>
      <trkpt lat="45.10542" lon="5.47388">
        <ele>833</ele>
        <time>2010-01-01T04:15:02Z</time>
      </trkpt>
      <trkpt lat="45.10545" lon="5.4739">
        <ele>834</ele>
        <time>2010-01-01T04:15:04Z</time>
      </trkpt>
      <trkpt lat="45.10549" lon="5.47391">
        <ele>835</ele>
        <time>2010-01-01T04:15:06Z</time>
      </trkpt>
      <trkpt lat="45.10553" lon="5.47394">
        <ele>835</ele>
        <time>2010-01-01T04:15:08Z</time>
      </trkpt>
      <trkpt lat="45.10561" lon="5.47399">
        <ele>837</ele>
        <time>2010-01-01T04:15:09Z</time>
      </trkpt>
      <trkpt lat="45.10573" lon="5.47407">
        <ele>841</ele>
        <time>2010-01-01T04:15:11Z</time>
      </trkpt>
      <trkpt lat="45.10582" lon="5.47414">
        <ele>843</ele>
        <time>2010-01-01T04:15:13Z</time>
      </trkpt>
      <trkpt lat="45.10592" lon="5.47421">
        <ele>845</ele>
        <time>2010-01-01T04:15:14Z</time>
      </trkpt>
      <trkpt lat="45.10598" lon="5.47425">
        <ele>846</ele>
        <time>2010-01-01T04:15:16Z</time>
      </trkpt>
      <trkpt lat="45.10604" lon="5.47428">
        <ele>848</ele>
        <time>2010-01-01T04:15:17Z</time>
      </trkpt>
      <trkpt lat="45.10609" lon="5.47429">
        <ele>849</ele>
        <time>2010-01-01T04:15:18Z</time>
      </trkpt>
      <trkpt lat="45.10614" lon="5.4743">
        <ele>849</ele>
        <time>2010-01-01T04:15:22Z</time>
      </trkpt>
      <trkpt lat="45.10621" lon="5.47431">
        <ele>850</ele>
        <time>2010-01-01T04:15:25Z</time>
      </trkpt>
      <trkpt lat="45.10627" lon="5.47431">
        <ele>850</ele>
        <time>2010-01-01T04:15:27Z</time>
      </trkpt>
      <trkpt lat="45.10633" lon="5.47431">
        <ele>850</ele>
        <time>2010-01-01T04:15:29Z</time>
      </trkpt>
      <trkpt lat="45.10643" lon="5.47431">
        <ele>851</ele>
        <time>2010-01-01T04:15:34Z</time>
      </trkpt>
      <trkpt lat="45.10652" lon="5.47433">
        <ele>852</ele>
        <time>2010-01-01T04:15:39Z</time>
      </trkpt>
      <trkpt lat="45.10661" lon="5.47433">
        <ele>852</ele>
        <time>2010-01-01T04:15:42Z</time>
      </trkpt>
      <trkpt lat="45.1067" lon="5.47435">
        <ele>852</ele>
        <time>2010-01-01T04:15:45Z</time>
      </trkpt>
      <trkpt lat="45.1068" lon="5.47439">
        <ele>851</ele>
        <time>2010-01-01T04:15:47Z</time>
      </trkpt>
      <trkpt lat="45.10689" lon="5.47444">
        <ele>851</ele>
        <time>2010-01-01T04:15:50Z</time>
      </trkpt>
      <trkpt lat="45.10698" lon="5.47451">
        <ele>851</ele>
        <time>2010-01-01T04:15:52Z</time>
      </trkpt>
      <trkpt lat="45.10708" lon="5.4746">
        <ele>850</ele>
        <time>2010-01-01T04:15:55Z</time>
      </trkpt>
      <trkpt lat="45.10716" lon="5.47467">
        <ele>850</ele>
        <time>2010-01-01T04:15:59Z</time>
      </trkpt>
      <trkpt lat="45.10725" lon="5.47476">
        <ele>850</ele>
        <time>2010-01-01T04:16:01Z</time>
      </trkpt>
      <trkpt lat="45.1073" lon="5.47483">
        <ele>851</ele>
        <time>2010-01-01T04:16:04Z</time>
      </trkpt>
      <trkpt lat="45.10737" lon="5.47491">
        <ele>852</ele>
        <time>2010-01-01T04:16:07Z</time>
      </trkpt>
      <trkpt lat="45.10741" lon="5.47497">
        <ele>853</ele>
        <time>2010-01-01T04:16:09Z</time>
      </trkpt>
      <trkpt lat="45.10745" lon="5.47502">
        <ele>853</ele>
        <time>2010-01-01T04:16:21Z</time>
      </trkpt>
      <trkpt lat="45.1075" lon="5.47508">
        <ele>853</ele>
        <time>2010-01-01T04:16:37Z</time>
      </trkpt>
      <trkpt lat="45.10759" lon="5.47518">
        <ele>853</ele>
        <time>2010-01-01T04:16:49Z</time>
      </trkpt>
      <trkpt lat="45.10765" lon="5.47525">
        <ele>853</ele>
        <time>2010-01-01T04:16:57Z</time>
      </trkpt>
      <trkpt lat="45.10774" lon="5.47537">
        <ele>854</ele>
        <time>2010-01-01T04:17:02Z</time>
      </trkpt>
      <trkpt lat="45.1078" lon="5.47546">
        <ele>855</ele>
        <time>2010-01-01T04:17:06Z</time>
      </trkpt>
      <trkpt lat="45.10784" lon="5.47552">
        <ele>856</ele>
        <time>2010-01-01T04:17:14Z</time>
      </trkpt>
      <trkpt lat="45.10787" lon="5.47558">
        <ele>857</ele>
        <time>2010-01-01T04:17:26Z</time>
      </trkpt>
      <trkpt lat="45.10791" lon="5.47566">
        <ele>858</ele>
        <time>2010-01-01T04:17:37Z</time>
      </trkpt>
      <trkpt lat="45.10795" lon="5.47574">
        <ele>860</ele>
        <time>2010-01-01T04:17:45Z</time>
      </trkpt>
      <trkpt lat="45.10798" lon="5.4758">
        <ele>861</ele>
        <time>2010-01-01T04:17:52Z</time>
      </trkpt>
      <trkpt lat="45.10802" lon="5.47592">
        <ele>863</ele>
        <time>2010-01-01T04:17:59Z</time>
      </trkpt>
      <trkpt lat="45.10806" lon="5.47603">
        <ele>865</ele>
        <time>2010-01-01T04:18:10Z</time>
      </trkpt>
      <trkpt lat="45.1081" lon="5.47611">
        <ele>866</ele>
        <time>2010-01-01T04:18:25Z</time>
      </trkpt>
      <trkpt lat="45.10813" lon="5.47619">
        <ele>867</ele>
        <time>2010-01-01T04:19:06Z</time>
      </trkpt>
      <trkpt lat="45.10818" lon="5.47626">
        <ele>868</ele>
        <time>2010-01-01T04:19:18Z</time>
      </trkpt>
      <trkpt lat="45.10823" lon="5.47632">
        <ele>868</ele>
        <time>2010-01-01T04:19:27Z</time>
      </trkpt>
      <trkpt lat="45.10828" lon="5.47637">
        <ele>868</ele>
        <time>2010-01-01T04:19:35Z</time>
      </trkpt>
      <trkpt lat="45.10835" lon="5.47643">
        <ele>868</ele>
        <time>2010-01-01T04:19:41Z</time>
      </trkpt>
      <trkpt lat="45.10844" lon="5.47649">
        <ele>870</ele>
        <time>2010-01-01T04:19:44Z</time>
      </trkpt>
      <trkpt lat="45.10851" lon="5.47654">
        <ele>871</ele>
        <time>2010-01-01T04:19:46Z</time>
      </trkpt>
      <trkpt lat="45.10861" lon="5.47659">
        <ele>871</ele>
        <time>2010-01-01T04:19:49Z</time>
      </trkpt>
      <trkpt lat="45.10868" lon="5.47662">
        <ele>872</ele>
        <time>2010-01-01T04:19:57Z</time>
      </trkpt>
      <trkpt lat="45.10873" lon="5.47665">
        <ele>873</ele>
        <time>2010-01-01T04:20:06Z</time>
      </trkpt>
      <trkpt lat="45.10888" lon="5.47673">
        <ele>876</ele>
        <time>2010-01-01T04:20:09Z</time>
      </trkpt>
      <trkpt lat="45.109" lon="5.4768">
        <ele>877</ele>
        <time>2010-01-01T04:20:12Z</time>
      </trkpt>
      <trkpt lat="45.10905" lon="5.47683">
        <ele>878</ele>
        <time>2010-01-01T04:20:16Z</time>
      </trkpt>
      <trkpt lat="45.10906" lon="5.47683">
        <ele>878</ele>
        <time>2010-01-01T04:20:20Z</time>
      </trkpt>
      <trkpt lat="45.10908" lon="5.47685">
        <ele>878</ele>
        <time>2010-01-01T04:20:24Z</time>
      </trkpt>
      <trkpt lat="45.1091" lon="5.47687">
        <ele>878</ele>
        <time>2010-01-01T04:20:27Z</time>
      </trkpt>
      <trkpt lat="45.10911" lon="5.4769">
        <ele>879</ele>
        <time>2010-01-01T04:20:32Z</time>
      </trkpt>
      <trkpt lat="45.10912" lon="5.47693">
        <ele>879</ele>
        <time>2010-01-01T04:20:35Z</time>
      </trkpt>
      <trkpt lat="45.10913" lon="5.47697">
        <ele>880</ele>
        <time>2010-01-01T04:20:39Z</time>
      </trkpt>
      <trkpt lat="45.10913" lon="5.47701">
        <ele>880</ele>
        <time>2010-01-01T04:20:42Z</time>
      </trkpt>
      <trkpt lat="45.10911" lon="5.47705">
        <ele>881</ele>
        <time>2010-01-01T04:20:45Z</time>
      </trkpt>
      <trkpt lat="45.1091" lon="5.47706">
        <ele>881</ele>
        <time>2010-01-01T04:20:49Z</time>
      </trkpt>
      <trkpt lat="45.10909" lon="5.47714">
        <ele>882</ele>
        <time>2010-01-01T04:20:51Z</time>
      </trkpt>
      <trkpt lat="45.1091" lon="5.47725">
        <ele>884</ele>
        <time>2010-01-01T04:20:56Z</time>
      </trkpt>
      <trkpt lat="45.10911" lon="5.47733">
        <ele>885</ele>
        <time>2010-01-01T04:21:00Z</time>
      </trkpt>
      <trkpt lat="45.10913" lon="5.47737">
        <ele>885</ele>
        <time>2010-01-01T04:21:07Z</time>
      </trkpt>
      <trkpt lat="45.10916" lon="5.4774">
        <ele>886</ele>
        <time>2010-01-01T04:21:12Z</time>
      </trkpt>
      <trkpt lat="45.1092" lon="5.47741">
        <ele>886</ele>
        <time>2010-01-01T04:21:17Z</time>
      </trkpt>
      <trkpt lat="45.10923" lon="5.47743">
        <ele>887</ele>
        <time>2010-01-01T04:21:30Z</time>
      </trkpt>
      <trkpt lat="45.10925" lon="5.47744">
        <ele>887</ele>
        <time>2010-01-01T04:21:41Z</time>
      </trkpt>
      <trkpt lat="45.10927" lon="5.47748">
        <ele>887</ele>
        <time>2010-01-01T04:21:49Z</time>
      </trkpt>
      <trkpt lat="45.1093" lon="5.47751">
        <ele>888</ele>
        <time>2010-01-01T04:21:55Z</time>
      </trkpt>
      <trkpt lat="45.10935" lon="5.47752">
        <ele>888</ele>
        <time>2010-01-01T04:21:59Z</time>
      </trkpt>
      <trkpt lat="45.10939" lon="5.47751">
        <ele>888</ele>
        <time>2010-01-01T04:22:02Z</time>
      </trkpt>
      <trkpt lat="45.10944" lon="5.47749">
        <ele>887</ele>
        <time>2010-01-01T04:22:03Z</time>
      </trkpt>
      <trkpt lat="45.10948" lon="5.47748">
        <ele>888</ele>
        <time>2010-01-01T04:22:11Z</time>
      </trkpt>
      <trkpt lat="45.10951" lon="5.47745">
        <ele>888</ele>
        <time>2010-01-01T04:22:14Z</time>
      </trkpt>
      <trkpt lat="45.10954" lon="5.4774">
        <ele>888</ele>
        <time>2010-01-01T04:22:16Z</time>
      </trkpt>
      <trkpt lat="45.10956" lon="5.47735">
        <ele>888</ele>
        <time>2010-01-01T04:22:16Z</time>
      </trkpt>
      <trkpt lat="45.10958" lon="5.47728">
        <ele>888</ele>
        <time>2010-01-01T04:22:23Z</time>
      </trkpt>
      <trkpt lat="45.10958" lon="5.47725">
        <ele>888</ele>
        <time>2010-01-01T04:22:29Z</time>
      </trkpt>
      <trkpt lat="45.10961" lon="5.47725">
        <ele>889</ele>
        <time>2010-01-01T04:22:34Z</time>
      </trkpt>
      <trkpt lat="45.10969" lon="5.47725">
        <ele>891</ele>
        <time>2010-01-01T04:22:40Z</time>
      </trkpt>
      <trkpt lat="45.10977" lon="5.47721">
        <ele>892</ele>
        <time>2010-01-01T04:22:46Z</time>
      </trkpt>
      <trkpt lat="45.1098" lon="5.47717">
        <ele>893</ele>
        <time>2010-01-01T04:22:52Z</time>
      </trkpt>
      <trkpt lat="45.10983" lon="5.47712">
        <ele>893</ele>
        <time>2010-01-01T04:22:58Z</time>
      </trkpt>
      <trkpt lat="45.10988" lon="5.47693">
        <ele>894</ele>
        <time>2010-01-01T04:23:04Z</time>
      </trkpt>
      <trkpt lat="45.10994" lon="5.47679">
        <ele>894</ele>
        <time>2010-01-01T04:23:09Z</time>
      </trkpt>
      <trkpt lat="45.10998" lon="5.4767">
        <ele>894</ele>
        <time>2010-01-01T04:23:12Z</time>
      </trkpt>
      <trkpt lat="45.11002" lon="5.47662">
        <ele>894</ele>
        <time>2010-01-01T04:23:19Z</time>
      </trkpt>
      <trkpt lat="45.11006" lon="5.47655">
        <ele>894</ele>
        <time>2010-01-01T04:23:25Z</time>
      </trkpt>
      <trkpt lat="45.11012" lon="5.4765">
        <ele>895</ele>
        <time>2010-01-01T04:23:27Z</time>
      </trkpt>
      <trkpt lat="45.11018" lon="5.47648">
        <ele>897</ele>
        <time>2010-01-01T04:23:30Z</time>
      </trkpt>
      <trkpt lat="45.11025" lon="5.47645">
        <ele>898</ele>
        <time>2010-01-01T04:23:34Z</time>
      </trkpt>
      <trkpt lat="45.11033" lon="5.47645">
        <ele>901</ele>
        <time>2010-01-01T04:23:42Z</time>
      </trkpt>
      <trkpt lat="45.11039" lon="5.47645">
        <ele>903</ele>
        <time>2010-01-01T04:23:56Z</time>
      </trkpt>
      <trkpt lat="45.11046" lon="5.47646">
        <ele>906</ele>
        <time>2010-01-01T04:24:05Z</time>
      </trkpt>
      <trkpt lat="45.11054" lon="5.47649">
        <ele>910</ele>
        <time>2010-01-01T04:24:13Z</time>
      </trkpt>
      <trkpt lat="45.11059" lon="5.47653">
        <ele>912</ele>
        <time>2010-01-01T04:24:21Z</time>
      </trkpt>
      <trkpt lat="45.11082" lon="5.47676">
        <ele>914</ele>
        <time>2010-01-01T04:24:29Z</time>
      </trkpt>
      <trkpt lat="45.11117" lon="5.47706">
        <ele>920</ele>
        <time>2010-01-01T04:24:34Z</time>
      </trkpt>
      <trkpt lat="45.11141" lon="5.47733">
        <ele>926</ele>
        <time>2010-01-01T04:24:38Z</time>
      </trkpt>
      <trkpt lat="45.11149" lon="5.47757">
        <ele>931</ele>
        <time>2010-01-01T04:24:44Z</time>
      </trkpt>
      <trkpt lat="45.11155" lon="5.47775">
        <ele>935</ele>
        <time>2010-01-01T04:24:47Z</time>
      </trkpt>
      <trkpt lat="45.11164" lon="5.4778">
        <ele>936</ele>
        <time>2010-01-01T04:24:49Z</time>
      </trkpt>
      <trkpt lat="45.11182" lon="5.47777">
        <ele>935</ele>
        <time>2010-01-01T04:24:51Z</time>
      </trkpt>
      <trkpt lat="45.11212" lon="5.47773">
        <ele>931</ele>
        <time>2010-01-01T04:24:56Z</time>
      </trkpt>
      <trkpt lat="45.1124" lon="5.47776">
        <ele>933</ele>
        <time>2010-01-01T04:24:59Z</time>
      </trkpt>
      <trkpt lat="45.11259" lon="5.47787">
        <ele>937</ele>
        <time>2010-01-01T04:25:01Z</time>
      </trkpt>
      <trkpt lat="45.11268" lon="5.47808">
        <ele>942</ele>
        <time>2010-01-01T04:25:04Z</time>
      </trkpt>
      <trkpt lat="45.11281" lon="5.47826">
        <ele>944</ele>
        <time>2010-01-01T04:25:05Z</time>
      </trkpt>
      <trkpt lat="45.11304" lon="5.47847">
        <ele>941</ele>
        <time>2010-01-01T04:25:07Z</time>
      </trkpt>
      <trkpt lat="45.11334" lon="5.47877">
        <ele>942</ele>
        <time>2010-01-01T04:25:09Z</time>
      </trkpt>
      <trkpt lat="45.11409" lon="5.47978">
        <ele>949</ele>
        <time>2010-01-01T04:25:11Z</time>
      </trkpt>
      <trkpt lat="45.11433" lon="5.48003">
        <ele>955</ele>
        <time>2010-01-01T04:25:14Z</time>
      </trkpt>
      <trkpt lat="45.1145" lon="5.48021">
        <ele>960</ele>
        <time>2010-01-01T04:25:17Z</time>
      </trkpt>
      <trkpt lat="45.11434" lon="5.48037">
        <ele>963</ele>
        <time>2010-01-01T04:25:22Z</time>
      </trkpt>
      <trkpt lat="45.11446" lon="5.48049">
        <ele>965</ele>
        <time>2010-01-01T04:25:31Z</time>
      </trkpt>
      <trkpt lat="45.11454" lon="5.48054">
        <ele>966</ele>
        <time>2010-01-01T04:25:45Z</time>
      </trkpt>
      <trkpt lat="45.11459" lon="5.48055">
        <ele>966</ele>
        <time>2010-01-01T04:25:55Z</time>
      </trkpt>
      <trkpt lat="45.11467" lon="5.48055">
        <ele>966</ele>
        <time>2010-01-01T04:26:02Z</time>
      </trkpt>
      <trkpt lat="45.11485" lon="5.48062">
        <ele>967</ele>
        <time>2010-01-01T04:26:08Z</time>
      </trkpt>
      <trkpt lat="45.11507" lon="5.48066">
        <ele>968</ele>
        <time>2010-01-01T04:26:12Z</time>
      </trkpt>
      <trkpt lat="45.11515" lon="5.48067">
        <ele>969</ele>
        <time>2010-01-01T04:26:17Z</time>
      </trkpt>
      <trkpt lat="45.11524" lon="5.48068">
        <ele>969</ele>
        <time>2010-01-01T04:26:21Z</time>
      </trkpt>
      <trkpt lat="45.11534" lon="5.48069">
        <ele>970</ele>
        <time>2010-01-01T04:26:24Z</time>
      </trkpt>
      <trkpt lat="45.11543" lon="5.48071">
        <ele>971</ele>
        <time>2010-01-01T04:26:28Z</time>
      </trkpt>
      <trkpt lat="45.11553" lon="5.48074">
        <ele>972</ele>
        <time>2010-01-01T04:26:32Z</time>
      </trkpt>
      <trkpt lat="45.11561" lon="5.48076">
        <ele>973</ele>
        <time>2010-01-01T04:26:37Z</time>
      </trkpt>
      <trkpt lat="45.11572" lon="5.48079">
        <ele>974</ele>
        <time>2010-01-01T04:26:42Z</time>
      </trkpt>
      <trkpt lat="45.11579" lon="5.48081">
        <ele>975</ele>
        <time>2010-01-01T04:26:46Z</time>
      </trkpt>
      <trkpt lat="45.11589" lon="5.48083">
        <ele>975</ele>
        <time>2010-01-01T04:26:49Z</time>
      </trkpt>
      <trkpt lat="45.11596" lon="5.48085">
        <ele>975</ele>
        <time>2010-01-01T04:26:53Z</time>
      </trkpt>
      <trkpt lat="45.11604" lon="5.48088">
        <ele>975</ele>
        <time>2010-01-01T04:26:57Z</time>
      </trkpt>
      <trkpt lat="45.11613" lon="5.4809">
        <ele>975</ele>
        <time>2010-01-01T04:27:02Z</time>
      </trkpt>
      <trkpt lat="45.11619" lon="5.48092">
        <ele>975</ele>
        <time>2010-01-01T04:27:08Z</time>
      </trkpt>
      <trkpt lat="45.11631" lon="5.48097">
        <ele>977</ele>
        <time>2010-01-01T04:27:17Z</time>
      </trkpt>
      <trkpt lat="45.1164" lon="5.481">
        <ele>978</ele>
        <time>2010-01-01T04:27:18Z</time>
      </trkpt>
      <trkpt lat="45.11657" lon="5.48107">
        <ele>983</ele>
        <time>2010-01-01T04:27:21Z</time>
      </trkpt>
      <trkpt lat="45.1167" lon="5.48109">
        <ele>985</ele>
        <time>2010-01-01T04:27:29Z</time>
      </trkpt>
      <trkpt lat="45.11681" lon="5.48108">
        <ele>984</ele>
        <time>2010-01-01T04:27:37Z</time>
      </trkpt>
      <trkpt lat="45.11714" lon="5.48098">
        <ele>982</ele>
        <time>2010-01-01T04:27:43Z</time>
      </trkpt>
      <trkpt lat="45.11741" lon="5.48086">
        <ele>982</ele>
        <time>2010-01-01T04:27:47Z</time>
      </trkpt>
      <trkpt lat="45.11758" lon="5.48077">
        <ele>982</ele>
        <time>2010-01-01T04:27:52Z</time>
      </trkpt>
      <trkpt lat="45.11772" lon="5.48071">
        <ele>982</ele>
        <time>2010-01-01T04:27:59Z</time>
      </trkpt>
      <trkpt lat="45.11783" lon="5.48066">
        <ele>982</ele>
        <time>2010-01-01T04:28:06Z</time>
      </trkpt>
      <trkpt lat="45.11789" lon="5.48064">
        <ele>982</ele>
        <time>2010-01-01T04:28:14Z</time>
      </trkpt>
      <trkpt lat="45.11793" lon="5.48061">
        <ele>982</ele>
        <time>2010-01-01T04:28:18Z</time>
      </trkpt>
      <trkpt lat="45.11807" lon="5.48045">
        <ele>981</ele>
        <time>2010-01-01T04:28:24Z</time>
      </trkpt>
      <trkpt lat="45.11814" lon="5.48039">
        <ele>982</ele>
        <time>2010-01-01T04:28:31Z</time>
      </trkpt>
      <trkpt lat="45.11819" lon="5.48036">
        <ele>982</ele>
        <time>2010-01-01T04:28:35Z</time>
      </trkpt>
      <trkpt lat="45.1182" lon="5.48036">
        <ele>982</ele>
        <time>2010-01-01T04:28:38Z</time>
      </trkpt>
      <trkpt lat="45.11836" lon="5.48038">
        <ele>985</ele>
        <time>2010-01-01T04:28:43Z</time>
      </trkpt>
      <trkpt lat="45.1185" lon="5.48041">
        <ele>988</ele>
        <time>2010-01-01T04:28:48Z</time>
      </trkpt>
      <trkpt lat="45.11862" lon="5.48048">
        <ele>991</ele>
        <time>2010-01-01T04:28:55Z</time>
      </trkpt>
      <trkpt lat="45.11873" lon="5.48063">
        <ele>991</ele>
        <time>2010-01-01T04:28:59Z</time>
      </trkpt>
      <trkpt lat="45.11881" lon="5.48083">
        <ele>991</ele>
        <time>2010-01-01T04:29:03Z</time>
      </trkpt>
      <trkpt lat="45.11886" lon="5.48102">
        <ele>992</ele>
        <time>2010-01-01T04:29:07Z</time>
      </trkpt>
      <trkpt lat="45.11889" lon="5.48122">
        <ele>993</ele>
        <time>2010-01-01T04:29:14Z</time>
      </trkpt>
      <trkpt lat="45.11895" lon="5.48142">
        <ele>994</ele>
        <time>2010-01-01T04:29:22Z</time>
      </trkpt>
      <trkpt lat="45.11902" lon="5.48156">
        <ele>995</ele>
        <time>2010-01-01T04:29:29Z</time>
      </trkpt>
      <trkpt lat="45.11909" lon="5.48164">
        <ele>996</ele>
        <time>2010-01-01T04:29:37Z</time>
      </trkpt>
      <trkpt lat="45.11923" lon="5.48177">
        <ele>998</ele>
        <time>2010-01-01T04:29:42Z</time>
      </trkpt>
      <trkpt lat="45.11937" lon="5.48186">
        <ele>999</ele>
        <time>2010-01-01T04:29:48Z</time>
      </trkpt>
      <trkpt lat="45.11942" lon="5.48187">
        <ele>999</ele>
        <time>2010-01-01T04:29:52Z</time>
      </trkpt>
      <trkpt lat="45.11948" lon="5.48189">
        <ele>999</ele>
        <time>2010-01-01T04:29:57Z</time>
      </trkpt>
      <trkpt lat="45.11958" lon="5.48188">
        <ele>999</ele>
        <time>2010-01-01T04:30:02Z</time>
      </trkpt>
      <trkpt lat="45.11978" lon="5.4818">
        <ele>999</ele>
        <time>2010-01-01T04:30:05Z</time>
      </trkpt>
      <trkpt lat="45.1201" lon="5.48163">
        <ele>999</ele>
        <time>2010-01-01T04:30:09Z</time>
      </trkpt>
      <trkpt lat="45.12032" lon="5.48154">
        <ele>999</ele>
        <time>2010-01-01T04:30:11Z</time>
      </trkpt>
      <trkpt lat="45.12051" lon="5.48142">
        <ele>997</ele>
        <time>2010-01-01T04:30:13Z</time>
      </trkpt>
      <trkpt lat="45.12069" lon="5.48132">
        <ele>996</ele>
        <time>2010-01-01T04:30:15Z</time>
      </trkpt>
      <trkpt lat="45.12087" lon="5.48119">
        <ele>994</ele>
        <time>2010-01-01T04:30:20Z</time>
      </trkpt>
      <trkpt lat="45.12099" lon="5.48112">
        <ele>993</ele>
        <time>2010-01-01T04:30:24Z</time>
      </trkpt>
      <trkpt lat="45.12109" lon="5.48108">
        <ele>994</ele>
        <time>2010-01-01T04:30:27Z</time>
      </trkpt>
      <trkpt lat="45.12122" lon="5.48104">
        <ele>993</ele>
        <time>2010-01-01T04:30:29Z</time>
      </trkpt>
      <trkpt lat="45.12129" lon="5.48104">
        <ele>993</ele>
        <time>2010-01-01T04:30:30Z</time>
      </trkpt>
      <trkpt lat="45.12135" lon="5.48105">
        <ele>993</ele>
        <time>2010-01-01T04:30:34Z</time>
      </trkpt>
      <trkpt lat="45.1214" lon="5.48106">
        <ele>993</ele>
        <time>2010-01-01T04:30:35Z</time>
      </trkpt>
      <trkpt lat="45.12153" lon="5.4811">
        <ele>996</ele>
        <time>2010-01-01T04:30:38Z</time>
      </trkpt>
      <trkpt lat="45.1216" lon="5.48111">
        <ele>997</ele>
        <time>2010-01-01T04:30:44Z</time>
      </trkpt>
      <trkpt lat="45.12165" lon="5.4811">
        <ele>998</ele>
        <time>2010-01-01T04:30:50Z</time>
      </trkpt>
      <trkpt lat="45.1217" lon="5.48106">
        <ele>998</ele>
        <time>2010-01-01T04:31:00Z</time>
      </trkpt>
      <trkpt lat="45.12173" lon="5.48101">
        <ele>998</ele>
        <time>2010-01-01T04:31:10Z</time>
      </trkpt>
      <trkpt lat="45.12177" lon="5.481">
        <ele>999</ele>
        <time>2010-01-01T04:31:16Z</time>
      </trkpt>
      <trkpt lat="45.12181" lon="5.48099">
        <ele>999</ele>
        <time>2010-01-01T04:31:25Z</time>
      </trkpt>
      <trkpt lat="45.12187" lon="5.48096">
        <ele>1000</ele>
        <time>2010-01-01T04:31:34Z</time>
      </trkpt>
      <trkpt lat="45.12193" lon="5.48093">
        <ele>1000</ele>
        <time>2010-01-01T04:31:44Z</time>
      </trkpt>
      <trkpt lat="45.12202" lon="5.48093">
        <ele>1001</ele>
        <time>2010-01-01T04:31:51Z</time>
      </trkpt>
      <trkpt lat="45.12213" lon="5.48094">
        <ele>1003</ele>
        <time>2010-01-01T04:31:56Z</time>
      </trkpt>
      <trkpt lat="45.12235" lon="5.48096">
        <ele>1007</ele>
        <time>2010-01-01T04:32:06Z</time>
      </trkpt>
      <trkpt lat="45.1227" lon="5.48095">
        <ele>1012</ele>
        <time>2010-01-01T04:32:16Z</time>
      </trkpt>
      <trkpt lat="45.12296" lon="5.48099">
        <ele>1014</ele>
        <time>2010-01-01T04:32:22Z</time>
      </trkpt>
      <trkpt lat="45.12314" lon="5.48103">
        <ele>1015</ele>
        <time>2010-01-01T04:32:29Z</time>
      </trkpt>
      <trkpt lat="45.12328" lon="5.48108">
        <ele>1016</ele>
        <time>2010-01-01T04:32:35Z</time>
      </trkpt>
      <trkpt lat="45.12337" lon="5.48112">
        <ele>1017</ele>
        <time>2010-01-01T04:32:39Z</time>
      </trkpt>
      <trkpt lat="45.12348" lon="5.48121">
        <ele>1020</ele>
        <time>2010-01-01T04:32:44Z</time>
      </trkpt>
      <trkpt lat="45.12357" lon="5.48129">
        <ele>1023</ele>
        <time>2010-01-01T04:32:49Z</time>
      </trkpt>
      <trkpt lat="45.12364" lon="5.48134">
        <ele>1025</ele>
        <time>2010-01-01T04:32:53Z</time>
      </trkpt>
      <trkpt lat="45.12372" lon="5.48136">
        <ele>1027</ele>
        <time>2010-01-01T04:32:56Z</time>
      </trkpt>
      <trkpt lat="45.12383" lon="5.48136">
        <ele>1029</ele>
        <time>2010-01-01T04:33:00Z</time>
      </trkpt>
      <trkpt lat="45.12395" lon="5.48136">
        <ele>1031</ele>
        <time>2010-01-01T04:33:03Z</time>
      </trkpt>
      <trkpt lat="45.12407" lon="5.4814">
        <ele>1035</ele>
        <time>2010-01-01T04:33:06Z</time>
      </trkpt>
      <trkpt lat="45.12417" lon="5.48141">
        <ele>1038</ele>
        <time>2010-01-01T04:33:09Z</time>
      </trkpt>
      <trkpt lat="45.12426" lon="5.48141">
        <ele>1039</ele>
        <time>2010-01-01T04:33:13Z</time>
      </trkpt>
      <trkpt lat="45.12435" lon="5.48139">
        <ele>1040</ele>
        <time>2010-01-01T04:33:17Z</time>
      </trkpt>
      <trkpt lat="45.12444" lon="5.48137">
        <ele>1041</ele>
        <time>2010-01-01T04:33:21Z</time>
      </trkpt>
      <trkpt lat="45.12457" lon="5.4814">
        <ele>1044</ele>
        <time>2010-01-01T04:33:27Z</time>
      </trkpt>
      <trkpt lat="45.12471" lon="5.48145">
        <ele>1048</ele>
        <time>2010-01-01T04:33:32Z</time>
      </trkpt>
      <trkpt lat="45.12492" lon="5.48155">
        <ele>1050</ele>
        <time>2010-01-01T04:33:35Z</time>
      </trkpt>
      <trkpt lat="45.12495" lon="5.48156">
        <ele>1050</ele>
        <time>2010-01-01T04:33:37Z</time>
      </trkpt>
      <trkpt lat="45.12503" lon="5.48159">
        <ele>1050</ele>
        <time>2010-01-01T04:33:39Z</time>
      </trkpt>
      <trkpt lat="45.12521" lon="5.48166">
        <ele>1049</ele>
        <time>2010-01-01T04:33:43Z</time>
      </trkpt>
      <trkpt lat="45.12541" lon="5.48175">
        <ele>1051</ele>
        <time>2010-01-01T04:33:46Z</time>
      </trkpt>
      <trkpt lat="45.12555" lon="5.48178">
        <ele>1053</ele>
        <time>2010-01-01T04:33:50Z</time>
      </trkpt>
      <trkpt lat="45.12566" lon="5.48178">
        <ele>1053</ele>
        <time>2010-01-01T04:33:55Z</time>
      </trkpt>
      <trkpt lat="45.12578" lon="5.48178">
        <ele>1054</ele>
        <time>2010-01-01T04:34:00Z</time>
      </trkpt>
      <trkpt lat="45.12596" lon="5.48178">
        <ele>1054</ele>
        <time>2010-01-01T04:34:07Z</time>
      </trkpt>
      <trkpt lat="45.12613" lon="5.48181">
        <ele>1054</ele>
        <time>2010-01-01T04:34:16Z</time>
      </trkpt>
      <trkpt lat="45.12632" lon="5.48184">
        <ele>1054</ele>
        <time>2010-01-01T04:34:22Z</time>
      </trkpt>
      <trkpt lat="45.12642" lon="5.48182">
        <ele>1054</ele>
        <time>2010-01-01T04:34:26Z</time>
      </trkpt>
      <trkpt lat="45.12656" lon="5.48175">
        <ele>1055</ele>
        <time>2010-01-01T04:34:28Z</time>
      </trkpt>
      <trkpt lat="45.12672" lon="5.48164">
        <ele>1057</ele>
        <time>2010-01-01T04:34:30Z</time>
      </trkpt>
      <trkpt lat="45.12682" lon="5.48159">
        <ele>1058</ele>
        <time>2010-01-01T04:34:32Z</time>
      </trkpt>
      <trkpt lat="45.12689" lon="5.48158">
        <ele>1060</ele>
        <time>2010-01-01T04:34:34Z</time>
      </trkpt>
      <trkpt lat="45.12701" lon="5.48167">
        <ele>1064</ele>
        <time>2010-01-01T04:34:38Z</time>
      </trkpt>
      <trkpt lat="45.12713" lon="5.48174">
        <ele>1067</ele>
        <time>2010-01-01T04:34:46Z</time>
      </trkpt>
      <trkpt lat="45.12727" lon="5.48183">
        <ele>1069</ele>
        <time>2010-01-01T04:34:52Z</time>
      </trkpt>
      <trkpt lat="45.12737" lon="5.48193">
        <ele>1070</ele>
        <time>2010-01-01T04:34:58Z</time>
      </trkpt>
      <trkpt lat="45.12744" lon="5.482">
        <ele>1071</ele>
        <time>2010-01-01T04:35:04Z</time>
      </trkpt>
      <trkpt lat="45.12752" lon="5.4821">
        <ele>1072</ele>
        <time>2010-01-01T04:35:09Z</time>
      </trkpt>
      <trkpt lat="45.12765" lon="5.48223">
        <ele>1073</ele>
        <time>2010-01-01T04:35:14Z</time>
      </trkpt>
      <trkpt lat="45.12784" lon="5.48234">
        <ele>1074</ele>
        <time>2010-01-01T04:35:17Z</time>
      </trkpt>
      <trkpt lat="45.12802" lon="5.48243">
        <ele>1075</ele>
        <time>2010-01-01T04:35:19Z</time>
      </trkpt>
      <trkpt lat="45.1282" lon="5.48251">
        <ele>1075</ele>
        <time>2010-01-01T04:35:20Z</time>
      </trkpt>
      <trkpt lat="45.12833" lon="5.48255">
        <ele>1075</ele>
        <time>2010-01-01T04:35:22Z</time>
      </trkpt>
      <trkpt lat="45.12846" lon="5.48258">
        <ele>1076</ele>
        <time>2010-01-01T04:35:27Z</time>
      </trkpt>
      <trkpt lat="45.12858" lon="5.48261">
        <ele>1076</ele>
        <time>2010-01-01T04:35:31Z</time>
      </trkpt>
      <trkpt lat="45.12868" lon="5.48267">
        <ele>1076</ele>
        <time>2010-01-01T04:35:37Z</time>
      </trkpt>
      <trkpt lat="45.12879" lon="5.48274">
        <ele>1076</ele>
        <time>2010-01-01T04:35:41Z</time>
      </trkpt>
      <trkpt lat="45.12887" lon="5.48281">
        <ele>1077</ele>
        <time>2010-01-01T04:35:47Z</time>
      </trkpt>
      <trkpt lat="45.12894" lon="5.48288">
        <ele>1077</ele>
        <time>2010-01-01T04:35:53Z</time>
      </trkpt>
      <trkpt lat="45.12899" lon="5.4829">
        <ele>1077</ele>
        <time>2010-01-01T04:35:55Z</time>
      </trkpt>
      <trkpt lat="45.12904" lon="5.48289">
        <ele>1077</ele>
        <time>2010-01-01T04:35:58Z</time>
      </trkpt>
      <trkpt lat="45.1291" lon="5.48286">
        <ele>1077</ele>
        <time>2010-01-01T04:36:01Z</time>
      </trkpt>
      <trkpt lat="45.12919" lon="5.48278">
        <ele>1077</ele>
        <time>2010-01-01T04:36:04Z</time>
      </trkpt>
      <trkpt lat="45.12927" lon="5.48269">
        <ele>1077</ele>
        <time>2010-01-01T04:36:08Z</time>
      </trkpt>
      <trkpt lat="45.1293" lon="5.48279">
        <ele>1078</ele>
        <time>2010-01-01T04:36:10Z</time>
      </trkpt>
      <trkpt lat="45.12934" lon="5.48282">
        <ele>1078</ele>
        <time>2010-01-01T04:36:12Z</time>
      </trkpt>
      <trkpt lat="45.1293" lon="5.48279">
        <ele>1078</ele>
        <time>2010-01-01T04:36:15Z</time>
      </trkpt>
      <trkpt lat="45.12927" lon="5.48269">
        <ele>1077</ele>
        <time>2010-01-01T04:36:19Z</time>
      </trkpt>
      <trkpt lat="45.12931" lon="5.48267">
        <ele>1077</ele>
        <time>2010-01-01T04:36:26Z</time>
      </trkpt>
      <trkpt lat="45.12938" lon="5.48262">
        <ele>1077</ele>
        <time>2010-01-01T04:36:36Z</time>
      </trkpt>
      <trkpt lat="45.12951" lon="5.48255">
        <ele>1078</ele>
        <time>2010-01-01T04:36:43Z</time>
      </trkpt>
      <trkpt lat="45.12966" lon="5.48247">
        <ele>1079</ele>
        <time>2010-01-01T04:36:51Z</time>
      </trkpt>
      <trkpt lat="45.12988" lon="5.48232">
        <ele>1081</ele>
        <time>2010-01-01T04:37:00Z</time>
      </trkpt>
      <trkpt lat="45.13011" lon="5.48215">
        <ele>1081</ele>
        <time>2010-01-01T04:37:08Z</time>
      </trkpt>
      <trkpt lat="45.13024" lon="5.48206">
        <ele>1080</ele>
        <time>2010-01-01T04:37:16Z</time>
      </trkpt>
      <trkpt lat="45.13041" lon="5.48184">
        <ele>1079</ele>
        <time>2010-01-01T04:37:22Z</time>
      </trkpt>
      <trkpt lat="45.13057" lon="5.48162">
        <ele>1078</ele>
        <time>2010-01-01T04:37:26Z</time>
      </trkpt>
      <trkpt lat="45.13076" lon="5.48143">
        <ele>1077</ele>
        <time>2010-01-01T04:37:34Z</time>
      </trkpt>
      <trkpt lat="45.13091" lon="5.48131">
        <ele>1075</ele>
        <time>2010-01-01T04:37:47Z</time>
      </trkpt>
      <trkpt lat="45.13104" lon="5.48125">
        <ele>1074</ele>
        <time>2010-01-01T04:37:58Z</time>
      </trkpt>
      <trkpt lat="45.13128" lon="5.48114">
        <ele>1072</ele>
        <time>2010-01-01T04:38:09Z</time>
      </trkpt>
      <trkpt lat="45.13152" lon="5.4811">
        <ele>1072</ele>
        <time>2010-01-01T04:38:23Z</time>
      </trkpt>
      <trkpt lat="45.13168" lon="5.4811">
        <ele>1073</ele>
        <time>2010-01-01T04:38:36Z</time>
      </trkpt>
      <trkpt lat="45.13186" lon="5.4811">
        <ele>1074</ele>
        <time>2010-01-01T04:38:47Z</time>
      </trkpt>
      <trkpt lat="45.13201" lon="5.48109">
        <ele>1075</ele>
        <time>2010-01-01T04:38:55Z</time>
      </trkpt>
      <trkpt lat="45.1321" lon="5.48109">
        <ele>1074</ele>
        <time>2010-01-01T04:39:01Z</time>
      </trkpt>
      <trkpt lat="45.13222" lon="5.48111">
        <ele>1073</ele>
        <time>2010-01-01T04:39:06Z</time>
      </trkpt>
      <trkpt lat="45.13234" lon="5.48113">
        <ele>1073</ele>
        <time>2010-01-01T04:39:11Z</time>
      </trkpt>
      <trkpt lat="45.13245" lon="5.48114">
        <ele>1072</ele>
        <time>2010-01-01T04:39:16Z</time>
      </trkpt>
      <trkpt lat="45.13253" lon="5.48114">
        <ele>1071</ele>
        <time>2010-01-01T04:39:20Z</time>
      </trkpt>
      <trkpt lat="45.13262" lon="5.48115">
        <ele>1070</ele>
        <time>2010-01-01T04:39:25Z</time>
      </trkpt>
      <trkpt lat="45.1327" lon="5.48117">
        <ele>1068</ele>
        <time>2010-01-01T04:39:31Z</time>
      </trkpt>
      <trkpt lat="45.13276" lon="5.48122">
        <ele>1068</ele>
        <time>2010-01-01T04:39:38Z</time>
      </trkpt>
      <trkpt lat="45.13282" lon="5.4813">
        <ele>1067</ele>
        <time>2010-01-01T04:39:44Z</time>
      </trkpt>
      <trkpt lat="45.13288" lon="5.48138">
        <ele>1067</ele>
        <time>2010-01-01T04:39:51Z</time>
      </trkpt>
      <trkpt lat="45.13297" lon="5.48146">
        <ele>1066</ele>
        <time>2010-01-01T04:40:00Z</time>
      </trkpt>
      <trkpt lat="45.13307" lon="5.48151">
        <ele>1066</ele>
        <time>2010-01-01T04:40:04Z</time>
      </trkpt>
      <trkpt lat="45.13321" lon="5.48157">
        <ele>1068</ele>
        <time>2010-01-01T04:40:09Z</time>
      </trkpt>
      <trkpt lat="45.13334" lon="5.48159">
        <ele>1070</ele>
        <time>2010-01-01T04:40:15Z</time>
      </trkpt>
      <trkpt lat="45.13341" lon="5.48159">
        <ele>1070</ele>
        <time>2010-01-01T04:40:20Z</time>
      </trkpt>
      <trkpt lat="45.13346" lon="5.48158">
        <ele>1071</ele>
        <time>2010-01-01T04:40:24Z</time>
      </trkpt>
      <trkpt lat="45.13351" lon="5.48155">
        <ele>1070</ele>
        <time>2010-01-01T04:40:28Z</time>
      </trkpt>
      <trkpt lat="45.13358" lon="5.48148">
        <ele>1069</ele>
        <time>2010-01-01T04:40:31Z</time>
      </trkpt>
      <trkpt lat="45.13367" lon="5.48144">
        <ele>1069</ele>
        <time>2010-01-01T04:40:33Z</time>
      </trkpt>
      <trkpt lat="45.13377" lon="5.48143">
        <ele>1069</ele>
        <time>2010-01-01T04:40:40Z</time>
      </trkpt>
      <trkpt lat="45.13388" lon="5.48141">
        <ele>1069</ele>
        <time>2010-01-01T04:40:47Z</time>
      </trkpt>
      <trkpt lat="45.13401" lon="5.48142">
        <ele>1071</ele>
        <time>2010-01-01T04:40:54Z</time>
      </trkpt>
      <trkpt lat="45.13418" lon="5.48148">
        <ele>1074</ele>
        <time>2010-01-01T04:41:02Z</time>
      </trkpt>
      <trkpt lat="45.1344" lon="5.48154">
        <ele>1076</ele>
        <time>2010-01-01T04:41:09Z</time>
      </trkpt>
      <trkpt lat="45.13455" lon="5.48157">
        <ele>1077</ele>
        <time>2010-01-01T04:41:18Z</time>
      </trkpt>
      <trkpt lat="45.13465" lon="5.48156">
        <ele>1077</ele>
        <time>2010-01-01T04:41:28Z</time>
      </trkpt>
      <trkpt lat="45.13468" lon="5.4816">
        <ele>1078</ele>
        <time>2010-01-01T04:41:38Z</time>
      </trkpt>
      <trkpt lat="45.13471" lon="5.48166">
        <ele>1078</ele>
        <time>2010-01-01T04:41:44Z</time>
      </trkpt>
      <trkpt lat="45.13475" lon="5.48169">
        <ele>1079</ele>
        <time>2010-01-01T04:41:49Z</time>
      </trkpt>
      <trkpt lat="45.13481" lon="5.48172">
        <ele>1080</ele>
        <time>2010-01-01T04:41:51Z</time>
      </trkpt>
      <trkpt lat="45.13491" lon="5.48174">
        <ele>1081</ele>
        <time>2010-01-01T04:41:56Z</time>
      </trkpt>
      <trkpt lat="45.13509" lon="5.48177">
        <ele>1082</ele>
        <time>2010-01-01T04:42:04Z</time>
      </trkpt>
      <trkpt lat="45.13526" lon="5.48182">
        <ele>1084</ele>
        <time>2010-01-01T04:42:11Z</time>
      </trkpt>
      <trkpt lat="45.1354" lon="5.48184">
        <ele>1084</ele>
        <time>2010-01-01T04:42:17Z</time>
      </trkpt>
      <trkpt lat="45.13555" lon="5.48185">
        <ele>1083</ele>
        <time>2010-01-01T04:42:21Z</time>
      </trkpt>
      <trkpt lat="45.13566" lon="5.48187">
        <ele>1083</ele>
        <time>2010-01-01T04:42:24Z</time>
      </trkpt>
      <trkpt lat="45.1358" lon="5.4819">
        <ele>1083</ele>
        <time>2010-01-01T04:42:27Z</time>
      </trkpt>
      <trkpt lat="45.13586" lon="5.48193">
        <ele>1083</ele>
        <time>2010-01-01T04:42:31Z</time>
      </trkpt>
      <trkpt lat="45.13591" lon="5.48195">
        <ele>1084</ele>
        <time>2010-01-01T04:42:39Z</time>
      </trkpt>
      <trkpt lat="45.13594" lon="5.48196">
        <ele>1084</ele>
        <time>2010-01-01T04:42:46Z</time>
      </trkpt>
      <trkpt lat="45.136" lon="5.48196">
        <ele>1084</ele>
        <time>2010-01-01T04:42:54Z</time>
      </trkpt>
      <trkpt lat="45.1361" lon="5.482">
        <ele>1084</ele>
        <time>2010-01-01T04:43:02Z</time>
      </trkpt>
      <trkpt lat="45.13621" lon="5.48206">
        <ele>1085</ele>
        <time>2010-01-01T04:43:10Z</time>
      </trkpt>
      <trkpt lat="45.13633" lon="5.48214">
        <ele>1086</ele>
        <time>2010-01-01T04:43:23Z</time>
      </trkpt>
      <trkpt lat="45.13643" lon="5.4822">
        <ele>1087</ele>
        <time>2010-01-01T04:43:36Z</time>
      </trkpt>
      <trkpt lat="45.13657" lon="5.48231">
        <ele>1088</ele>
        <time>2010-01-01T04:43:41Z</time>
      </trkpt>
      <trkpt lat="45.1367" lon="5.48238">
        <ele>1087</ele>
        <time>2010-01-01T04:43:44Z</time>
      </trkpt>
      <trkpt lat="45.13674" lon="5.4824">
        <ele>1087</ele>
        <time>2010-01-01T04:43:48Z</time>
      </trkpt>
      <trkpt lat="45.13682" lon="5.48242">
        <ele>1086</ele>
        <time>2010-01-01T04:43:52Z</time>
      </trkpt>
      <trkpt lat="45.13684" lon="5.48251">
        <ele>1087</ele>
        <time>2010-01-01T04:43:56Z</time>
      </trkpt>
      <trkpt lat="45.13688" lon="5.48262">
        <ele>1087</ele>
        <time>2010-01-01T04:44:00Z</time>
      </trkpt>
      <trkpt lat="45.13695" lon="5.48269">
        <ele>1086</ele>
        <time>2010-01-01T04:44:04Z</time>
      </trkpt>
      <trkpt lat="45.13701" lon="5.48275">
        <ele>1086</ele>
        <time>2010-01-01T04:44:10Z</time>
      </trkpt>
      <trkpt lat="45.13706" lon="5.48276">
        <ele>1086</ele>
        <time>2010-01-01T04:44:22Z</time>
      </trkpt>
      <trkpt lat="45.13712" lon="5.48279">
        <ele>1087</ele>
        <time>2010-01-01T04:44:31Z</time>
      </trkpt>
      <trkpt lat="45.13719" lon="5.4829">
        <ele>1088</ele>
        <time>2010-01-01T04:45:00Z</time>
      </trkpt>
      <trkpt lat="45.13728" lon="5.4831">
        <ele>1089</ele>
        <time>2010-01-01T04:45:12Z</time>
      </trkpt>
      <trkpt lat="45.13741" lon="5.4834">
        <ele>1087</ele>
        <time>2010-01-01T04:45:31Z</time>
      </trkpt>
      <trkpt lat="45.13753" lon="5.4836">
        <ele>1084</ele>
        <time>2010-01-01T04:45:48Z</time>
      </trkpt>
      <trkpt lat="45.13767" lon="5.48379">
        <ele>1086</ele>
        <time>2010-01-01T04:46:03Z</time>
      </trkpt>
      <trkpt lat="45.13786" lon="5.48398">
        <ele>1090</ele>
        <time>2010-01-01T04:46:24Z</time>
      </trkpt>
      <trkpt lat="45.13803" lon="5.48414">
        <ele>1095</ele>
        <time>2010-01-01T04:46:46Z</time>
      </trkpt>
      <trkpt lat="45.1382" lon="5.48428">
        <ele>1097</ele>
        <time>2010-01-01T04:47:13Z</time>
      </trkpt>
      <trkpt lat="45.13832" lon="5.48436">
        <ele>1098</ele>
        <time>2010-01-01T04:47:15Z</time>
      </trkpt>
      <trkpt lat="45.13842" lon="5.4844">
        <ele>1098</ele>
        <time>2010-01-01T04:47:37Z</time>
      </trkpt>
      <trkpt lat="45.13862" lon="5.48445">
        <ele>1101</ele>
        <time>2010-01-01T04:47:47Z</time>
      </trkpt>
      <trkpt lat="45.13895" lon="5.48445">
        <ele>1107</ele>
        <time>2010-01-01T04:48:12Z</time>
      </trkpt>
      <trkpt lat="45.13923" lon="5.48441">
        <ele>1108</ele>
        <time>2010-01-01T04:48:14Z</time>
      </trkpt>
      <trkpt lat="45.13949" lon="5.48438">
        <ele>1110</ele>
        <time>2010-01-01T04:48:15Z</time>
      </trkpt>
      <trkpt lat="45.13984" lon="5.48436">
        <ele>1110</ele>
        <time>2010-01-01T04:48:36Z</time>
      </trkpt>
      <trkpt lat="45.14017" lon="5.4844">
        <ele>1111</ele>
        <time>2010-01-01T04:49:05Z</time>
      </trkpt>
      <trkpt lat="45.14044" lon="5.48445">
        <ele>1113</ele>
        <time>2010-01-01T04:49:22Z</time>
      </trkpt>
      <trkpt lat="45.14064" lon="5.48448">
        <ele>1114</ele>
        <time>2010-01-01T04:49:40Z</time>
      </trkpt>
      <trkpt lat="45.14079" lon="5.4845">
        <ele>1116</ele>
        <time>2010-01-01T04:49:48Z</time>
      </trkpt>
      <trkpt lat="45.14091" lon="5.48455">
        <ele>1116</ele>
        <time>2010-01-01T04:49:53Z</time>
      </trkpt>
      <trkpt lat="45.14102" lon="5.4846">
        <ele>1117</ele>
        <time>2010-01-01T04:50:19Z</time>
      </trkpt>
      <trkpt lat="45.14115" lon="5.48465">
        <ele>1116</ele>
        <time>2010-01-01T04:50:24Z</time>
      </trkpt>
      <trkpt lat="45.14124" lon="5.48468">
        <ele>1116</ele>
        <time>2010-01-01T04:50:34Z</time>
      </trkpt>
      <trkpt lat="45.14137" lon="5.48469">
        <ele>1115</ele>
        <time>2010-01-01T04:50:47Z</time>
      </trkpt>
      <trkpt lat="45.14151" lon="5.4847">
        <ele>1115</ele>
        <time>2010-01-01T04:51:23Z</time>
      </trkpt>
      <trkpt lat="45.14169" lon="5.48478">
        <ele>1115</ele>
        <time>2010-01-01T04:51:48Z</time>
      </trkpt>
      <trkpt lat="45.14181" lon="5.48486">
        <ele>1117</ele>
        <time>2010-01-01T04:51:54Z</time>
      </trkpt>
      <trkpt lat="45.14199" lon="5.48497">
        <ele>1119</ele>
        <time>2010-01-01T04:51:58Z</time>
      </trkpt>
      <trkpt lat="45.14219" lon="5.48511">
        <ele>1121</ele>
        <time>2010-01-01T04:52:11Z</time>
      </trkpt>
      <trkpt lat="45.14229" lon="5.48515">
        <ele>1122</ele>
        <time>2010-01-01T04:52:23Z</time>
      </trkpt>
      <trkpt lat="45.14241" lon="5.48517">
        <ele>1122</ele>
        <time>2010-01-01T04:52:37Z</time>
      </trkpt>
      <trkpt lat="45.14255" lon="5.4852">
        <ele>1121</ele>
        <time>2010-01-01T04:53:05Z</time>
      </trkpt>
      <trkpt lat="45.14266" lon="5.48524">
        <ele>1120</ele>
        <time>2010-01-01T04:53:20Z</time>
      </trkpt>
      <trkpt lat="45.14276" lon="5.48532">
        <ele>1119</ele>
        <time>2010-01-01T04:53:34Z</time>
      </trkpt>
      <trkpt lat="45.14284" lon="5.48542">
        <ele>1121</ele>
        <time>2010-01-01T04:53:51Z</time>
      </trkpt>
      <trkpt lat="45.14288" lon="5.48551">
        <ele>1122</ele>
        <time>2010-01-01T04:54:01Z</time>
      </trkpt>
      <trkpt lat="45.14291" lon="5.48557">
        <ele>1123</ele>
        <time>2010-01-01T04:54:18Z</time>
      </trkpt>
      <trkpt lat="45.14299" lon="5.48579">
        <ele>1128</ele>
        <time>2010-01-01T04:54:32Z</time>
      </trkpt>
      <trkpt lat="45.14309" lon="5.48598">
        <ele>1131</ele>
        <time>2010-01-01T04:55:00Z</time>
      </trkpt>
      <trkpt lat="45.14323" lon="5.48613">
        <ele>1132</ele>
        <time>2010-01-01T04:55:50Z</time>
      </trkpt>
      <trkpt lat="45.14338" lon="5.4863">
        <ele>1132</ele>
        <time>2010-01-01T04:56:02Z</time>
      </trkpt>
      <trkpt lat="45.14352" lon="5.48646">
        <ele>1134</ele>
        <time>2010-01-01T04:56:08Z</time>
      </trkpt>
      <trkpt lat="45.14368" lon="5.48668">
        <ele>1135</ele>
        <time>2010-01-01T04:56:15Z</time>
      </trkpt>
      <trkpt lat="45.14384" lon="5.48694">
        <ele>1133</ele>
        <time>2010-01-01T04:56:25Z</time>
      </trkpt>
      <trkpt lat="45.14399" lon="5.48723">
        <ele>1134</ele>
        <time>2010-01-01T04:57:03Z</time>
      </trkpt>
      <trkpt lat="45.14408" lon="5.48742">
        <ele>1136</ele>
        <time>2010-01-01T04:57:39Z</time>
      </trkpt>
      <trkpt lat="45.14414" lon="5.48757">
        <ele>1139</ele>
        <time>2010-01-01T04:57:52Z</time>
      </trkpt>
      <trkpt lat="45.14418" lon="5.48762">
        <ele>1139</ele>
        <time>2010-01-01T04:58:00Z</time>
      </trkpt>
      <trkpt lat="45.14423" lon="5.48776">
        <ele>1142</ele>
        <time>2010-01-01T04:58:09Z</time>
      </trkpt>
      <trkpt lat="45.14432" lon="5.48803">
        <ele>1146</ele>
        <time>2010-01-01T04:58:10Z</time>
      </trkpt>
      <trkpt lat="45.1444" lon="5.48823">
        <ele>1151</ele>
        <time>2010-01-01T04:58:18Z</time>
      </trkpt>
      <trkpt lat="45.14446" lon="5.48845">
        <ele>1158</ele>
        <time>2010-01-01T04:58:34Z</time>
      </trkpt>
      <trkpt lat="45.1445" lon="5.48857">
        <ele>1164</ele>
        <time>2010-01-01T04:58:44Z</time>
      </trkpt>
      <trkpt lat="45.14454" lon="5.48865">
        <ele>1168</ele>
        <time>2010-01-01T04:59:01Z</time>
      </trkpt>
      <trkpt lat="45.14461" lon="5.48871">
        <ele>1170</ele>
        <time>2010-01-01T04:59:12Z</time>
      </trkpt>
      <trkpt lat="45.14471" lon="5.48872">
        <ele>1170</ele>
        <time>2010-01-01T04:59:20Z</time>
      </trkpt>
      <trkpt lat="45.1449" lon="5.48869">
        <ele>1165</ele>
        <time>2010-01-01T04:59:28Z</time>
      </trkpt>
      <trkpt lat="45.14508" lon="5.4887">
        <ele>1163</ele>
        <time>2010-01-01T04:59:40Z</time>
      </trkpt>
      <trkpt lat="45.14528" lon="5.48876">
        <ele>1163</ele>
        <time>2010-01-01T04:59:47Z</time>
      </trkpt>
      <trkpt lat="45.14547" lon="5.48885">
        <ele>1165</ele>
        <time>2010-01-01T04:59:56Z</time>
      </trkpt>
      <trkpt lat="45.14566" lon="5.48896">
        <ele>1167</ele>
        <time>2010-01-01T05:00:11Z</time>
      </trkpt>
      <trkpt lat="45.14591" lon="5.4892">
        <ele>1171</ele>
        <time>2010-01-01T05:00:32Z</time>
      </trkpt>
      <trkpt lat="45.14616" lon="5.4895">
        <ele>1173</ele>
        <time>2010-01-01T05:00:47Z</time>
      </trkpt>
      <trkpt lat="45.14622" lon="5.48966">
        <ele>1175</ele>
        <time>2010-01-01T05:00:55Z</time>
      </trkpt>
      <trkpt lat="45.14624" lon="5.48976">
        <ele>1176</ele>
        <time>2010-01-01T05:01:04Z</time>
      </trkpt>
      <trkpt lat="45.14627" lon="5.48992">
        <ele>1177</ele>
        <time>2010-01-01T05:01:14Z</time>
      </trkpt>
      <trkpt lat="45.1463" lon="5.49005">
        <ele>1177</ele>
        <time>2010-01-01T05:01:30Z</time>
      </trkpt>
      <trkpt lat="45.14636" lon="5.49015">
        <ele>1177</ele>
        <time>2010-01-01T05:01:36Z</time>
      </trkpt>
      <trkpt lat="45.14643" lon="5.49023">
        <ele>1177</ele>
        <time>2010-01-01T05:01:43Z</time>
      </trkpt>
      <trkpt lat="45.14653" lon="5.49032">
        <ele>1178</ele>
        <time>2010-01-01T05:01:49Z</time>
      </trkpt>
      <trkpt lat="45.14665" lon="5.49045">
        <ele>1179</ele>
        <time>2010-01-01T05:01:56Z</time>
      </trkpt>
      <trkpt lat="45.1469" lon="5.49069">
        <ele>1181</ele>
        <time>2010-01-01T05:02:07Z</time>
      </trkpt>
      <trkpt lat="45.14708" lon="5.49084">
        <ele>1182</ele>
        <time>2010-01-01T05:02:14Z</time>
      </trkpt>
      <trkpt lat="45.14777" lon="5.49121">
        <ele>1186</ele>
        <time>2010-01-01T05:02:19Z</time>
      </trkpt>
      <trkpt lat="45.14804" lon="5.49135">
        <ele>1188</ele>
        <time>2010-01-01T05:02:26Z</time>
      </trkpt>
      <trkpt lat="45.14839" lon="5.49179">
        <ele>1198</ele>
        <time>2010-01-01T05:02:30Z</time>
      </trkpt>
      <trkpt lat="45.14873" lon="5.49219">
        <ele>1206</ele>
        <time>2010-01-01T05:02:37Z</time>
      </trkpt>
      <trkpt lat="45.14895" lon="5.4926">
        <ele>1210</ele>
        <time>2010-01-01T05:02:43Z</time>
      </trkpt>
      <trkpt lat="45.14915" lon="5.49328">
        <ele>1221</ele>
        <time>2010-01-01T05:02:50Z</time>
      </trkpt>
      <trkpt lat="45.14941" lon="5.49398">
        <ele>1235</ele>
        <time>2010-01-01T05:03:02Z</time>
      </trkpt>
      <trkpt lat="45.14984" lon="5.49473">
        <ele>1253</ele>
        <time>2010-01-01T05:03:10Z</time>
      </trkpt>
      <trkpt lat="45.14987" lon="5.49478">
        <ele>1254</ele>
        <time>2010-01-01T05:03:18Z</time>
      </trkpt>
      <trkpt lat="45.15026" lon="5.49532">
        <ele>1265</ele>
        <time>2010-01-01T05:03:25Z</time>
      </trkpt>
      <trkpt lat="45.15044" lon="5.49556">
        <ele>1270</ele>
        <time>2010-01-01T05:03:33Z</time>
      </trkpt>
      <trkpt lat="45.15084" lon="5.49624">
        <ele>1283</ele>
        <time>2010-01-01T05:03:40Z</time>
      </trkpt>
      <trkpt lat="45.15087" lon="5.4963">
        <ele>1285</ele>
        <time>2010-01-01T05:03:45Z</time>
      </trkpt>
      <trkpt lat="45.15089" lon="5.49635">
        <ele>1287</ele>
        <time>2010-01-01T05:03:48Z</time>
      </trkpt>
      <trkpt lat="45.15111" lon="5.49701">
        <ele>1296</ele>
        <time>2010-01-01T05:03:50Z</time>
      </trkpt>
      <trkpt lat="45.15142" lon="5.49793">
        <ele>1315</ele>
        <time>2010-01-01T05:04:13Z</time>
      </trkpt>
      <trkpt lat="45.15162" lon="5.49847">
        <ele>1325</ele>
        <time>2010-01-01T05:04:17Z</time>
      </trkpt>
      <trkpt lat="45.152" lon="5.49883">
        <ele>1328</ele>
        <time>2010-01-01T05:04:25Z</time>
      </trkpt>
      <trkpt lat="45.15215" lon="5.49898">
        <ele>1330</ele>
        <time>2010-01-01T05:04:42Z</time>
      </trkpt>
      <trkpt lat="45.15226" lon="5.49909">
        <ele>1331</ele>
        <time>2010-01-01T05:04:49Z</time>
      </trkpt>
      <trkpt lat="45.15275" lon="5.49971">
        <ele>1346</ele>
        <time>2010-01-01T05:04:55Z</time>
      </trkpt>
      <trkpt lat="45.15281" lon="5.49985">
        <ele>1349</ele>
        <time>2010-01-01T05:04:58Z</time>
      </trkpt>
      <trkpt lat="45.15294" lon="5.50014">
        <ele>1356</ele>
        <time>2010-01-01T05:05:02Z</time>
      </trkpt>
      <trkpt lat="45.15261" lon="5.5002">
        <ele>1372</ele>
        <time>2010-01-01T05:05:05Z</time>
      </trkpt>
      <trkpt lat="45.15328" lon="5.50105">
        <ele>1385</ele>
        <time>2010-01-01T05:05:08Z</time>
      </trkpt>
      <trkpt lat="45.15371" lon="5.50167">
        <ele>1397</ele>
        <time>2010-01-01T05:05:11Z</time>
      </trkpt>
      <trkpt lat="45.15355" lon="5.50171">
        <ele>1406</ele>
        <time>2010-01-01T05:05:15Z</time>
      </trkpt>
      <trkpt lat="45.15356" lon="5.50185">
        <ele>1415</ele>
        <time>2010-01-01T05:05:17Z</time>
      </trkpt>
      <trkpt lat="45.15378" lon="5.50218">
        <ele>1418</ele>
        <time>2010-01-01T05:05:20Z</time>
      </trkpt>
      <trkpt lat="45.15387" lon="5.5026">
        <ele>1419</ele>
        <time>2010-01-01T05:05:23Z</time>
      </trkpt>
      <trkpt lat="45.15412" lon="5.50291">
        <ele>1419</ele>
        <time>2010-01-01T05:05:26Z</time>
      </trkpt>
      <trkpt lat="45.15473" lon="5.5034">
        <ele>1420</ele>
        <time>2010-01-01T05:05:31Z</time>
      </trkpt>
      <trkpt lat="45.15499" lon="5.50378">
        <ele>1419</ele>
        <time>2010-01-01T05:05:34Z</time>
      </trkpt>
      <trkpt lat="45.15511" lon="5.50426">
        <ele>1414</ele>
        <time>2010-01-01T05:05:38Z</time>
      </trkpt>
      <trkpt lat="45.15517" lon="5.50486">
        <ele>1410</ele>
        <time>2010-01-01T05:05:41Z</time>
      </trkpt>
      <trkpt lat="45.15523" lon="5.50522">
        <ele>1405</ele>
        <time>2010-01-01T05:05:43Z</time>
      </trkpt>
      <trkpt lat="45.15551" lon="5.50567">
        <ele>1399</ele>
        <time>2010-01-01T05:05:45Z</time>
      </trkpt>
      <trkpt lat="45.15575" lon="5.50599">
        <ele>1392</ele>
        <time>2010-01-01T05:05:46Z</time>
      </trkpt>
      <trkpt lat="45.15627" lon="5.50665">
        <ele>1384</ele>
        <time>2010-01-01T05:05:48Z</time>
      </trkpt>
      <trkpt lat="45.15726" lon="5.50776">
        <ele>1385</ele>
        <time>2010-01-01T05:05:52Z</time>
      </trkpt>
      <trkpt lat="45.15752" lon="5.50795">
        <ele>1383</ele>
        <time>2010-01-01T05:05:55Z</time>
      </trkpt>
      <trkpt lat="45.15736" lon="5.50802">
        <ele>1379</ele>
        <time>2010-01-01T05:05:59Z</time>
      </trkpt>
      <trkpt lat="45.15752" lon="5.50795">
        <ele>1383</ele>
        <time>2010-01-01T05:06:03Z</time>
      </trkpt>
      <trkpt lat="45.15773" lon="5.50811">
        <ele>1380</ele>
        <time>2010-01-01T05:06:06Z</time>
      </trkpt>
      <trkpt lat="45.15862" lon="5.50865">
        <ele>1375</ele>
        <time>2010-01-01T05:06:08Z</time>
      </trkpt>
      <trkpt lat="45.15936" lon="5.50935">
        <ele>1355</ele>
        <time>2010-01-01T05:06:10Z</time>
      </trkpt>
      <trkpt lat="45.15953" lon="5.50974">
        <ele>1350</ele>
        <time>2010-01-01T05:06:17Z</time>
      </trkpt>
      <trkpt lat="45.1596" lon="5.51002">
        <ele>1345</ele>
        <time>2010-01-01T05:06:38Z</time>
      </trkpt>
      <trkpt lat="45.15967" lon="5.51031">
        <ele>1339</ele>
        <time>2010-01-01T05:06:51Z</time>
      </trkpt>
      <trkpt lat="45.15969" lon="5.51034">
        <ele>1338</ele>
        <time>2010-01-01T05:06:54Z</time>
      </trkpt>
      <trkpt lat="45.15983" lon="5.51051">
        <ele>1337</ele>
        <time>2010-01-01T05:06:58Z</time>
      </trkpt>
      <trkpt lat="45.1602" lon="5.51077">
        <ele>1339</ele>
        <time>2010-01-01T05:07:01Z</time>
      </trkpt>
      <trkpt lat="45.16042" lon="5.51093">
        <ele>1338</ele>
        <time>2010-01-01T05:07:04Z</time>
      </trkpt>
      <trkpt lat="45.16083" lon="5.51113">
        <ele>1335</ele>
        <time>2010-01-01T05:07:08Z</time>
      </trkpt>
      <trkpt lat="45.16103" lon="5.51136">
        <ele>1328</ele>
        <time>2010-01-01T05:07:11Z</time>
      </trkpt>
      <trkpt lat="45.16113" lon="5.5116">
        <ele>1323</ele>
        <time>2010-01-01T05:07:14Z</time>
      </trkpt>
      <trkpt lat="45.16113" lon="5.5119">
        <ele>1316</ele>
        <time>2010-01-01T05:07:18Z</time>
      </trkpt>
      <trkpt lat="45.16117" lon="5.51232">
        <ele>1306</ele>
        <time>2010-01-01T05:07:21Z</time>
      </trkpt>
      <trkpt lat="45.16122" lon="5.51256">
        <ele>1300</ele>
        <time>2010-01-01T05:07:24Z</time>
      </trkpt>
      <trkpt lat="45.1614" lon="5.51275">
        <ele>1297</ele>
        <time>2010-01-01T05:07:27Z</time>
      </trkpt>
      <trkpt lat="45.16176" lon="5.51293">
        <ele>1293</ele>
        <time>2010-01-01T05:07:30Z</time>
      </trkpt>
      <trkpt lat="45.16226" lon="5.51316">
        <ele>1294</ele>
        <time>2010-01-01T05:07:32Z</time>
      </trkpt>
      <trkpt lat="45.16262" lon="5.51332">
        <ele>1293</ele>
        <time>2010-01-01T05:07:33Z</time>
      </trkpt>
      <trkpt lat="45.16275" lon="5.51352">
        <ele>1288</ele>
        <time>2010-01-01T05:07:37Z</time>
      </trkpt>
      <trkpt lat="45.16287" lon="5.51377">
        <ele>1283</ele>
        <time>2010-01-01T05:07:40Z</time>
      </trkpt>
      <trkpt lat="45.16293" lon="5.51411">
        <ele>1276</ele>
        <time>2010-01-01T05:07:41Z</time>
      </trkpt>
      <trkpt lat="45.16297" lon="5.51468">
        <ele>1268</ele>
        <time>2010-01-01T05:07:44Z</time>
      </trkpt>
      <trkpt lat="45.16298" lon="5.51489">
        <ele>1262</ele>
        <time>2010-01-01T05:07:47Z</time>
      </trkpt>
      <trkpt lat="45.1631" lon="5.5151">
        <ele>1260</ele>
        <time>2010-01-01T05:07:51Z</time>
      </trkpt>
      <trkpt lat="45.16321" lon="5.51525">
        <ele>1258</ele>
        <time>2010-01-01T05:07:56Z</time>
      </trkpt>
      <trkpt lat="45.16335" lon="5.51539">
        <ele>1256</ele>
        <time>2010-01-01T05:07:59Z</time>
      </trkpt>
      <trkpt lat="45.16359" lon="5.51557">
        <ele>1252</ele>
        <time>2010-01-01T05:08:01Z</time>
      </trkpt>
      <trkpt lat="45.16374" lon="5.51569">
        <ele>1249</ele>
        <time>2010-01-01T05:08:07Z</time>
      </trkpt>
      <trkpt lat="45.16385" lon="5.51578">
        <ele>1247</ele>
        <time>2010-01-01T05:08:11Z</time>
      </trkpt>
      <trkpt lat="45.16398" lon="5.51594">
        <ele>1242</ele>
        <time>2010-01-01T05:08:14Z</time>
      </trkpt>
      <trkpt lat="45.16405" lon="5.51603">
        <ele>1238</ele>
        <time>2010-01-01T05:08:16Z</time>
      </trkpt>
      <trkpt lat="45.16415" lon="5.51624">
        <ele>1231</ele>
        <time>2010-01-01T05:08:19Z</time>
      </trkpt>
      <trkpt lat="45.1642" lon="5.51645">
        <ele>1224</ele>
        <time>2010-01-01T05:08:21Z</time>
      </trkpt>
      <trkpt lat="45.16424" lon="5.5167">
        <ele>1218</ele>
        <time>2010-01-01T05:08:23Z</time>
      </trkpt>
      <trkpt lat="45.16427" lon="5.5171">
        <ele>1204</ele>
        <time>2010-01-01T05:08:32Z</time>
      </trkpt>
      <trkpt lat="45.16433" lon="5.51738">
        <ele>1199</ele>
        <time>2010-01-01T05:09:05Z</time>
      </trkpt>
      <trkpt lat="45.16451" lon="5.51752">
        <ele>1200</ele>
        <time>2010-01-01T05:09:19Z</time>
      </trkpt>
      <trkpt lat="45.16467" lon="5.51758">
        <ele>1201</ele>
        <time>2010-01-01T05:09:25Z</time>
      </trkpt>
      <trkpt lat="45.16487" lon="5.51762">
        <ele>1202</ele>
        <time>2010-01-01T05:09:29Z</time>
      </trkpt>
      <trkpt lat="45.16505" lon="5.51764">
        <ele>1202</ele>
        <time>2010-01-01T05:09:34Z</time>
      </trkpt>
      <trkpt lat="45.16516" lon="5.51768">
        <ele>1202</ele>
        <time>2010-01-01T05:09:40Z</time>
      </trkpt>
      <trkpt lat="45.16522" lon="5.51775">
        <ele>1200</ele>
        <time>2010-01-01T05:09:43Z</time>
      </trkpt>
      <trkpt lat="45.16524" lon="5.51783">
        <ele>1199</ele>
        <time>2010-01-01T05:09:44Z</time>
      </trkpt>
      <trkpt lat="45.16504" lon="5.51859">
        <ele>1177</ele>
        <time>2010-01-01T05:09:47Z</time>
      </trkpt>
      <trkpt lat="45.16509" lon="5.51871">
        <ele>1174</ele>
        <time>2010-01-01T05:09:50Z</time>
      </trkpt>
      <trkpt lat="45.16522" lon="5.51894">
        <ele>1169</ele>
        <time>2010-01-01T05:09:54Z</time>
      </trkpt>
      <trkpt lat="45.16547" lon="5.5194">
        <ele>1152</ele>
        <time>2010-01-01T05:09:57Z</time>
      </trkpt>
      <trkpt lat="45.16558" lon="5.5196">
        <ele>1147</ele>
        <time>2010-01-01T05:10:02Z</time>
      </trkpt>
      <trkpt lat="45.16569" lon="5.51975">
        <ele>1144</ele>
        <time>2010-01-01T05:10:05Z</time>
      </trkpt>
      <trkpt lat="45.16573" lon="5.51982">
        <ele>1143</ele>
        <time>2010-01-01T05:10:10Z</time>
      </trkpt>
      <trkpt lat="45.16581" lon="5.5199">
        <ele>1141</ele>
        <time>2010-01-01T05:10:13Z</time>
      </trkpt>
      <trkpt lat="45.16588" lon="5.51995">
        <ele>1141</ele>
        <time>2010-01-01T05:10:17Z</time>
      </trkpt>
      <trkpt lat="45.16594" lon="5.52002">
        <ele>1139</ele>
        <time>2010-01-01T05:10:18Z</time>
      </trkpt>
      <trkpt lat="45.16602" lon="5.52008">
        <ele>1138</ele>
        <time>2010-01-01T05:10:23Z</time>
      </trkpt>
      <trkpt lat="45.16609" lon="5.52015">
        <ele>1137</ele>
        <time>2010-01-01T05:10:27Z</time>
      </trkpt>
      <trkpt lat="45.16614" lon="5.5202">
        <ele>1136</ele>
        <time>2010-01-01T05:10:30Z</time>
      </trkpt>
      <trkpt lat="45.1662" lon="5.52024">
        <ele>1135</ele>
        <time>2010-01-01T05:10:32Z</time>
      </trkpt>
      <trkpt lat="45.16627" lon="5.52029">
        <ele>1133</ele>
        <time>2010-01-01T05:10:35Z</time>
      </trkpt>
      <trkpt lat="45.16634" lon="5.52035">
        <ele>1132</ele>
        <time>2010-01-01T05:10:37Z</time>
      </trkpt>
      <trkpt lat="45.16644" lon="5.52042">
        <ele>1130</ele>
        <time>2010-01-01T05:10:39Z</time>
      </trkpt>
      <trkpt lat="45.16652" lon="5.52047">
        <ele>1128</ele>
        <time>2010-01-01T05:10:42Z</time>
      </trkpt>
      <trkpt lat="45.1666" lon="5.52052">
        <ele>1127</ele>
        <time>2010-01-01T05:10:47Z</time>
      </trkpt>
      <trkpt lat="45.16667" lon="5.52055">
        <ele>1126</ele>
        <time>2010-01-01T05:10:53Z</time>
      </trkpt>
      <trkpt lat="45.16673" lon="5.52059">
        <ele>1125</ele>
        <time>2010-01-01T05:10:58Z</time>
      </trkpt>
      <trkpt lat="45.16676" lon="5.52064">
        <ele>1123</ele>
        <time>2010-01-01T05:11:02Z</time>
      </trkpt>
      <trkpt lat="45.16678" lon="5.52067">
        <ele>1122</ele>
        <time>2010-01-01T05:11:06Z</time>
      </trkpt>
      <trkpt lat="45.16681" lon="5.52072">
        <ele>1121</ele>
        <time>2010-01-01T05:11:09Z</time>
      </trkpt>
      <trkpt lat="45.16689" lon="5.5208">
        <ele>1118</ele>
        <time>2010-01-01T05:11:13Z</time>
      </trkpt>
      <trkpt lat="45.16695" lon="5.52087">
        <ele>1117</ele>
        <time>2010-01-01T05:11:17Z</time>
      </trkpt>
      <trkpt lat="45.16703" lon="5.52095">
        <ele>1116</ele>
        <time>2010-01-01T05:11:21Z</time>
      </trkpt>
      <trkpt lat="45.1671" lon="5.52102">
        <ele>1115</ele>
        <time>2010-01-01T05:11:25Z</time>
      </trkpt>
      <trkpt lat="45.16717" lon="5.52107">
        <ele>1114</ele>
        <time>2010-01-01T05:11:27Z</time>
      </trkpt>
      <trkpt lat="45.16721" lon="5.5211">
        <ele>1113</ele>
        <time>2010-01-01T05:11:29Z</time>
      </trkpt>
      <trkpt lat="45.16726" lon="5.52113">
        <ele>1113</ele>
        <time>2010-01-01T05:11:33Z</time>
      </trkpt>
      <trkpt lat="45.16741" lon="5.52125">
        <ele>1112</ele>
        <time>2010-01-01T05:11:35Z</time>
      </trkpt>
      <trkpt lat="45.16784" lon="5.52171">
        <ele>1103</ele>
        <time>2010-01-01T05:11:38Z</time>
      </trkpt>
      <trkpt lat="45.16803" lon="5.52208">
        <ele>1096</ele>
        <time>2010-01-01T05:11:41Z</time>
      </trkpt>
      <trkpt lat="45.16802" lon="5.52218">
        <ele>1094</ele>
        <time>2010-01-01T05:11:49Z</time>
      </trkpt>
      <trkpt lat="45.16801" lon="5.52232">
        <ele>1091</ele>
        <time>2010-01-01T05:11:56Z</time>
      </trkpt>
      <trkpt lat="45.16801" lon="5.52243">
        <ele>1088</ele>
        <time>2010-01-01T05:11:59Z</time>
      </trkpt>
      <trkpt lat="45.16802" lon="5.52255">
        <ele>1086</ele>
        <time>2010-01-01T05:12:04Z</time>
      </trkpt>
      <trkpt lat="45.16803" lon="5.52266">
        <ele>1083</ele>
        <time>2010-01-01T05:12:09Z</time>
      </trkpt>
      <trkpt lat="45.16804" lon="5.52277">
        <ele>1080</ele>
        <time>2010-01-01T05:12:13Z</time>
      </trkpt>
      <trkpt lat="45.16806" lon="5.52289">
        <ele>1077</ele>
        <time>2010-01-01T05:12:18Z</time>
      </trkpt>
      <trkpt lat="45.16808" lon="5.52301">
        <ele>1074</ele>
        <time>2010-01-01T05:12:22Z</time>
      </trkpt>
      <trkpt lat="45.16809" lon="5.52313">
        <ele>1072</ele>
        <time>2010-01-01T05:12:26Z</time>
      </trkpt>
      <trkpt lat="45.16811" lon="5.52322">
        <ele>1070</ele>
        <time>2010-01-01T05:12:29Z</time>
      </trkpt>
      <trkpt lat="45.16814" lon="5.52331">
        <ele>1068</ele>
        <time>2010-01-01T05:12:32Z</time>
      </trkpt>
      <trkpt lat="45.16817" lon="5.52341">
        <ele>1066</ele>
        <time>2010-01-01T05:12:36Z</time>
      </trkpt>
      <trkpt lat="45.16819" lon="5.52348">
        <ele>1064</ele>
        <time>2010-01-01T05:12:38Z</time>
      </trkpt>
      <trkpt lat="45.16821" lon="5.52352">
        <ele>1064</ele>
        <time>2010-01-01T05:12:41Z</time>
      </trkpt>
      <trkpt lat="45.16828" lon="5.52362">
        <ele>1062</ele>
        <time>2010-01-01T05:12:44Z</time>
      </trkpt>
      <trkpt lat="45.16834" lon="5.5237">
        <ele>1062</ele>
        <time>2010-01-01T05:12:47Z</time>
      </trkpt>
      <trkpt lat="45.16836" lon="5.52372">
        <ele>1062</ele>
        <time>2010-01-01T05:12:50Z</time>
      </trkpt>
      <trkpt lat="45.16841" lon="5.52376">
        <ele>1061</ele>
        <time>2010-01-01T05:12:53Z</time>
      </trkpt>
      <trkpt lat="45.16847" lon="5.52382">
        <ele>1061</ele>
        <time>2010-01-01T05:12:56Z</time>
      </trkpt>
      <trkpt lat="45.16857" lon="5.52382">
        <ele>1062</ele>
        <time>2010-01-01T05:13:00Z</time>
      </trkpt>
      <trkpt lat="45.1687" lon="5.52382">
        <ele>1063</ele>
        <time>2010-01-01T05:13:04Z</time>
      </trkpt>
      <trkpt lat="45.16878" lon="5.52382">
        <ele>1064</ele>
        <time>2010-01-01T05:13:07Z</time>
      </trkpt>
      <trkpt lat="45.16884" lon="5.52382">
        <ele>1065</ele>
        <time>2010-01-01T05:13:11Z</time>
      </trkpt>
      <trkpt lat="45.16898" lon="5.52384">
        <ele>1065</ele>
        <time>2010-01-01T05:13:15Z</time>
      </trkpt>
      <trkpt lat="45.16908" lon="5.52387">
        <ele>1065</ele>
        <time>2010-01-01T05:13:19Z</time>
      </trkpt>
      <trkpt lat="45.16914" lon="5.52389">
        <ele>1064</ele>
        <time>2010-01-01T05:13:22Z</time>
      </trkpt>
      <trkpt lat="45.16921" lon="5.52391">
        <ele>1065</ele>
        <time>2010-01-01T05:13:24Z</time>
      </trkpt>
      <trkpt lat="45.16928" lon="5.52391">
        <ele>1068</ele>
        <time>2010-01-01T05:13:27Z</time>
      </trkpt>
      <trkpt lat="45.16933" lon="5.52392">
        <ele>1070</ele>
        <time>2010-01-01T05:13:28Z</time>
      </trkpt>
      <trkpt lat="45.16937" lon="5.52392">
        <ele>1071</ele>
        <time>2010-01-01T05:13:31Z</time>
      </trkpt>
      <trkpt lat="45.16959" lon="5.52392">
        <ele>1078</ele>
        <time>2010-01-01T05:13:36Z</time>
      </trkpt>
      <trkpt lat="45.17041" lon="5.52404">
        <ele>1087</ele>
        <time>2010-01-01T05:13:40Z</time>
      </trkpt>
      <trkpt lat="45.17074" lon="5.52386">
        <ele>1091</ele>
        <time>2010-01-01T05:13:44Z</time>
      </trkpt>
      <trkpt lat="45.1709" lon="5.52383">
        <ele>1093</ele>
        <time>2010-01-01T05:13:47Z</time>
      </trkpt>
      <trkpt lat="45.17098" lon="5.52388">
        <ele>1093</ele>
        <time>2010-01-01T05:13:49Z</time>
      </trkpt>
      <trkpt lat="45.17105" lon="5.52404">
        <ele>1091</ele>
        <time>2010-01-01T05:13:52Z</time>
      </trkpt>
      <trkpt lat="45.17108" lon="5.52425">
        <ele>1087</ele>
        <time>2010-01-01T05:13:55Z</time>
      </trkpt>
      <trkpt lat="45.17112" lon="5.52432">
        <ele>1086</ele>
        <time>2010-01-01T05:13:58Z</time>
      </trkpt>
      <trkpt lat="45.17115" lon="5.52436">
        <ele>1086</ele>
        <time>2010-01-01T05:14:02Z</time>
      </trkpt>
      <trkpt lat="45.17121" lon="5.5244">
        <ele>1086</ele>
        <time>2010-01-01T05:14:06Z</time>
      </trkpt>
      <trkpt lat="45.17129" lon="5.52443">
        <ele>1087</ele>
        <time>2010-01-01T05:14:09Z</time>
      </trkpt>
      <trkpt lat="45.17137" lon="5.52446">
        <ele>1088</ele>
        <time>2010-01-01T05:14:13Z</time>
      </trkpt>
      <trkpt lat="45.17146" lon="5.52449">
        <ele>1089</ele>
        <time>2010-01-01T05:14:16Z</time>
      </trkpt>
      <trkpt lat="45.17156" lon="5.52453">
        <ele>1090</ele>
        <time>2010-01-01T05:14:19Z</time>
      </trkpt>
      <trkpt lat="45.17165" lon="5.52457">
        <ele>1090</ele>
        <time>2010-01-01T05:14:22Z</time>
      </trkpt>
      <trkpt lat="45.17177" lon="5.52462">
        <ele>1091</ele>
        <time>2010-01-01T05:14:24Z</time>
      </trkpt>
      <trkpt lat="45.17184" lon="5.52464">
        <ele>1091</ele>
        <time>2010-01-01T05:14:26Z</time>
      </trkpt>
      <trkpt lat="45.17194" lon="5.52467">
        <ele>1091</ele>
        <time>2010-01-01T05:14:29Z</time>
      </trkpt>
      <trkpt lat="45.17195" lon="5.52468">
        <ele>1091</ele>
        <time>2010-01-01T05:14:32Z</time>
      </trkpt>
      <trkpt lat="45.17208" lon="5.52474">
        <ele>1090</ele>
        <time>2010-01-01T05:14:35Z</time>
      </trkpt>
      <trkpt lat="45.17217" lon="5.52476">
        <ele>1089</ele>
        <time>2010-01-01T05:14:37Z</time>
      </trkpt>
      <trkpt lat="45.17223" lon="5.52481">
        <ele>1088</ele>
        <time>2010-01-01T05:14:40Z</time>
      </trkpt>
      <trkpt lat="45.17229" lon="5.52485">
        <ele>1086</ele>
        <time>2010-01-01T05:14:44Z</time>
      </trkpt>
      <trkpt lat="45.17233" lon="5.52491">
        <ele>1084</ele>
        <time>2010-01-01T05:14:46Z</time>
      </trkpt>
      <trkpt lat="45.17237" lon="5.52496">
        <ele>1083</ele>
        <time>2010-01-01T05:14:49Z</time>
      </trkpt>
      <trkpt lat="45.17242" lon="5.52499">
        <ele>1082</ele>
        <time>2010-01-01T05:14:50Z</time>
      </trkpt>
      <trkpt lat="45.17249" lon="5.525">
        <ele>1081</ele>
        <time>2010-01-01T05:14:53Z</time>
      </trkpt>
      <trkpt lat="45.17262" lon="5.52505">
        <ele>1079</ele>
        <time>2010-01-01T05:14:56Z</time>
      </trkpt>
      <trkpt lat="45.17276" lon="5.52507">
        <ele>1077</ele>
        <time>2010-01-01T05:14:58Z</time>
      </trkpt>
      <trkpt lat="45.17288" lon="5.52508">
        <ele>1075</ele>
        <time>2010-01-01T05:15:01Z</time>
      </trkpt>
      <trkpt lat="45.17298" lon="5.52509">
        <ele>1072</ele>
        <time>2010-01-01T05:15:03Z</time>
      </trkpt>
      <trkpt lat="45.17308" lon="5.52508">
        <ele>1070</ele>
        <time>2010-01-01T05:15:06Z</time>
      </trkpt>
      <trkpt lat="45.17317" lon="5.52508">
        <ele>1068</ele>
        <time>2010-01-01T05:15:08Z</time>
      </trkpt>
      <trkpt lat="45.17326" lon="5.52508">
        <ele>1067</ele>
        <time>2010-01-01T05:15:12Z</time>
      </trkpt>
      <trkpt lat="45.17336" lon="5.52508">
        <ele>1065</ele>
        <time>2010-01-01T05:15:15Z</time>
      </trkpt>
      <trkpt lat="45.17346" lon="5.52509">
        <ele>1064</ele>
        <time>2010-01-01T05:15:20Z</time>
      </trkpt>
      <trkpt lat="45.17356" lon="5.52512">
        <ele>1061</ele>
        <time>2010-01-01T05:15:23Z</time>
      </trkpt>
      <trkpt lat="45.1736" lon="5.52513">
        <ele>1061</ele>
        <time>2010-01-01T05:15:26Z</time>
      </trkpt>
      <trkpt lat="45.17365" lon="5.52514">
        <ele>1060</ele>
        <time>2010-01-01T05:15:30Z</time>
      </trkpt>
      <trkpt lat="45.17376" lon="5.52517">
        <ele>1059</ele>
        <time>2010-01-01T05:15:33Z</time>
      </trkpt>
      <trkpt lat="45.1738" lon="5.52518">
        <ele>1059</ele>
        <time>2010-01-01T05:15:38Z</time>
      </trkpt>
      <trkpt lat="45.17387" lon="5.5252">
        <ele>1058</ele>
        <time>2010-01-01T05:15:41Z</time>
      </trkpt>
      <trkpt lat="45.17395" lon="5.52522">
        <ele>1058</ele>
        <time>2010-01-01T05:15:44Z</time>
      </trkpt>
      <trkpt lat="45.17416" lon="5.52526">
        <ele>1058</ele>
        <time>2010-01-01T05:15:47Z</time>
      </trkpt>
      <trkpt lat="45.17432" lon="5.52528">
        <ele>1059</ele>
        <time>2010-01-01T05:15:50Z</time>
      </trkpt>
      <trkpt lat="45.17439" lon="5.52528">
        <ele>1060</ele>
        <time>2010-01-01T05:15:52Z</time>
      </trkpt>
      <trkpt lat="45.17453" lon="5.5253">
        <ele>1061</ele>
        <time>2010-01-01T05:15:53Z</time>
      </trkpt>
      <trkpt lat="45.17466" lon="5.52532">
        <ele>1062</ele>
        <time>2010-01-01T05:15:54Z</time>
      </trkpt>
      <trkpt lat="45.17476" lon="5.52534">
        <ele>1063</ele>
        <time>2010-01-01T05:15:55Z</time>
      </trkpt>
      <trkpt lat="45.17488" lon="5.52535">
        <ele>1065</ele>
        <time>2010-01-01T05:15:58Z</time>
      </trkpt>
      <trkpt lat="45.17498" lon="5.52536">
        <ele>1067</ele>
        <time>2010-01-01T05:16:06Z</time>
      </trkpt>
      <trkpt lat="45.17507" lon="5.52537">
        <ele>1068</ele>
        <time>2010-01-01T05:16:12Z</time>
      </trkpt>
      <trkpt lat="45.17515" lon="5.52537">
        <ele>1071</ele>
        <time>2010-01-01T05:16:20Z</time>
      </trkpt>
      <trkpt lat="45.17522" lon="5.52537">
        <ele>1073</ele>
        <time>2010-01-01T05:16:24Z</time>
      </trkpt>
      <trkpt lat="45.17531" lon="5.52539">
        <ele>1074</ele>
        <time>2010-01-01T05:16:27Z</time>
      </trkpt>
      <trkpt lat="45.17538" lon="5.52541">
        <ele>1074</ele>
        <time>2010-01-01T05:16:29Z</time>
      </trkpt>
      <trkpt lat="45.17545" lon="5.52545">
        <ele>1073</ele>
        <time>2010-01-01T05:16:33Z</time>
      </trkpt>
      <trkpt lat="45.17551" lon="5.52551">
        <ele>1071</ele>
        <time>2010-01-01T05:16:41Z</time>
      </trkpt>
      <trkpt lat="45.17557" lon="5.52556">
        <ele>1070</ele>
        <time>2010-01-01T05:16:53Z</time>
      </trkpt>
      <trkpt lat="45.17563" lon="5.52561">
        <ele>1069</ele>
        <time>2010-01-01T05:16:57Z</time>
      </trkpt>
      <trkpt lat="45.17571" lon="5.52566">
        <ele>1069</ele>
        <time>2010-01-01T05:16:59Z</time>
      </trkpt>
      <trkpt lat="45.17578" lon="5.52568">
        <ele>1070</ele>
        <time>2010-01-01T05:17:03Z</time>
      </trkpt>
      <trkpt lat="45.17586" lon="5.52571">
        <ele>1071</ele>
        <time>2010-01-01T05:17:07Z</time>
      </trkpt>
      <trkpt lat="45.17596" lon="5.52574">
        <ele>1073</ele>
        <time>2010-01-01T05:17:18Z</time>
      </trkpt>
      <trkpt lat="45.17605" lon="5.52575">
        <ele>1075</ele>
        <time>2010-01-01T05:17:32Z</time>
      </trkpt>
      <trkpt lat="45.17615" lon="5.52578">
        <ele>1078</ele>
        <time>2010-01-01T05:17:59Z</time>
      </trkpt>
      <trkpt lat="45.17624" lon="5.52581">
        <ele>1079</ele>
        <time>2010-01-01T05:18:19Z</time>
      </trkpt>
      <trkpt lat="45.17633" lon="5.52585">
        <ele>1081</ele>
        <time>2010-01-01T05:18:39Z</time>
      </trkpt>
      <trkpt lat="45.17639" lon="5.52589">
        <ele>1081</ele>
        <time>2010-01-01T05:19:01Z</time>
      </trkpt>
      <trkpt lat="45.17646" lon="5.52592">
        <ele>1081</ele>
        <time>2010-01-01T05:19:17Z</time>
      </trkpt>
      <trkpt lat="45.17652" lon="5.52592">
        <ele>1083</ele>
        <time>2010-01-01T05:19:35Z</time>
      </trkpt>
      <trkpt lat="45.17656" lon="5.52592">
        <ele>1084</ele>
        <time>2010-01-01T05:19:48Z</time>
      </trkpt>
      <trkpt lat="45.17663" lon="5.52589">
        <ele>1087</ele>
        <time>2010-01-01T05:20:00Z</time>
      </trkpt>
      <trkpt lat="45.17675" lon="5.52587">
        <ele>1091</ele>
        <time>2010-01-01T05:20:14Z</time>
      </trkpt>
      <trkpt lat="45.17684" lon="5.52585">
        <ele>1094</ele>
        <time>2010-01-01T05:20:19Z</time>
      </trkpt>
      <trkpt lat="45.17693" lon="5.52581">
        <ele>1097</ele>
        <time>2010-01-01T05:20:22Z</time>
      </trkpt>
      <trkpt lat="45.177" lon="5.52577">
        <ele>1100</ele>
        <time>2010-01-01T05:20:25Z</time>
      </trkpt>
      <trkpt lat="45.17706" lon="5.52577">
        <ele>1102</ele>
        <time>2010-01-01T05:20:27Z</time>
      </trkpt>
      <trkpt lat="45.17714" lon="5.52581">
        <ele>1103</ele>
        <time>2010-01-01T05:20:30Z</time>
      </trkpt>
      <trkpt lat="45.1772" lon="5.52584">
        <ele>1103</ele>
        <time>2010-01-01T05:20:33Z</time>
      </trkpt>
      <trkpt lat="45.17727" lon="5.5259">
        <ele>1104</ele>
        <time>2010-01-01T05:20:36Z</time>
      </trkpt>
      <trkpt lat="45.17735" lon="5.52597">
        <ele>1105</ele>
        <time>2010-01-01T05:20:41Z</time>
      </trkpt>
      <trkpt lat="45.17742" lon="5.52605">
        <ele>1104</ele>
        <time>2010-01-01T05:20:44Z</time>
      </trkpt>
      <trkpt lat="45.17749" lon="5.52613">
        <ele>1104</ele>
        <time>2010-01-01T05:20:47Z</time>
      </trkpt>
      <trkpt lat="45.17754" lon="5.52623">
        <ele>1103</ele>
        <time>2010-01-01T05:20:51Z</time>
      </trkpt>
      <trkpt lat="45.17761" lon="5.52632">
        <ele>1103</ele>
        <time>2010-01-01T05:20:57Z</time>
      </trkpt>
      <trkpt lat="45.17766" lon="5.5264">
        <ele>1103</ele>
        <time>2010-01-01T05:21:01Z</time>
      </trkpt>
      <trkpt lat="45.17771" lon="5.52648">
        <ele>1102</ele>
        <time>2010-01-01T05:21:06Z</time>
      </trkpt>
      <trkpt lat="45.17773" lon="5.52653">
        <ele>1101</ele>
        <time>2010-01-01T05:21:10Z</time>
      </trkpt>
      <trkpt lat="45.17775" lon="5.52659">
        <ele>1099</ele>
        <time>2010-01-01T05:21:12Z</time>
      </trkpt>
      <trkpt lat="45.17777" lon="5.52669">
        <ele>1097</ele>
        <time>2010-01-01T05:21:16Z</time>
      </trkpt>
      <trkpt lat="45.1778" lon="5.52678">
        <ele>1097</ele>
        <time>2010-01-01T05:21:18Z</time>
      </trkpt>
      <trkpt lat="45.17784" lon="5.52687">
        <ele>1097</ele>
        <time>2010-01-01T05:21:19Z</time>
      </trkpt>
      <trkpt lat="45.17787" lon="5.52695">
        <ele>1096</ele>
        <time>2010-01-01T05:21:20Z</time>
      </trkpt>
      <trkpt lat="45.17789" lon="5.52703">
        <ele>1095</ele>
        <time>2010-01-01T05:21:29Z</time>
      </trkpt>
      <trkpt lat="45.17793" lon="5.52716">
        <ele>1094</ele>
        <time>2010-01-01T05:21:40Z</time>
      </trkpt>
      <trkpt lat="45.17796" lon="5.52724">
        <ele>1093</ele>
        <time>2010-01-01T05:21:57Z</time>
      </trkpt>
      <trkpt lat="45.178" lon="5.52732">
        <ele>1093</ele>
        <time>2010-01-01T05:22:04Z</time>
      </trkpt>
      <trkpt lat="45.17802" lon="5.52736">
        <ele>1092</ele>
        <time>2010-01-01T05:22:06Z</time>
      </trkpt>
      <trkpt lat="45.17808" lon="5.52741">
        <ele>1093</ele>
        <time>2010-01-01T05:22:07Z</time>
      </trkpt>
      <trkpt lat="45.17814" lon="5.52746">
        <ele>1094</ele>
        <time>2010-01-01T05:22:07Z</time>
      </trkpt>
      <trkpt lat="45.17819" lon="5.52747">
        <ele>1096</ele>
        <time>2010-01-01T05:22:22Z</time>
      </trkpt>
      <trkpt lat="45.17825" lon="5.5275">
        <ele>1099</ele>
        <time>2010-01-01T05:22:33Z</time>
      </trkpt>
      <trkpt lat="45.1783" lon="5.52756">
        <ele>1099</ele>
        <time>2010-01-01T05:22:44Z</time>
      </trkpt>
      <trkpt lat="45.17836" lon="5.52762">
        <ele>1099</ele>
        <time>2010-01-01T05:22:51Z</time>
      </trkpt>
      <trkpt lat="45.1784" lon="5.52768">
        <ele>1098</ele>
        <time>2010-01-01T05:22:55Z</time>
      </trkpt>
      <trkpt lat="45.17848" lon="5.52773">
        <ele>1098</ele>
        <time>2010-01-01T05:22:59Z</time>
      </trkpt>
      <trkpt lat="45.17854" lon="5.52777">
        <ele>1097</ele>
        <time>2010-01-01T05:23:02Z</time>
      </trkpt>
      <trkpt lat="45.17866" lon="5.52786">
        <ele>1096</ele>
        <time>2010-01-01T05:23:12Z</time>
      </trkpt>
      <trkpt lat="45.17872" lon="5.52791">
        <ele>1095</ele>
        <time>2010-01-01T05:23:22Z</time>
      </trkpt>
      <trkpt lat="45.1788" lon="5.52797">
        <ele>1093</ele>
        <time>2010-01-01T05:23:28Z</time>
      </trkpt>
      <trkpt lat="45.17887" lon="5.52803">
        <ele>1091</ele>
        <time>2010-01-01T05:23:32Z</time>
      </trkpt>
      <trkpt lat="45.17896" lon="5.52807">
        <ele>1089</ele>
        <time>2010-01-01T05:23:37Z</time>
      </trkpt>
      <trkpt lat="45.17907" lon="5.52813">
        <ele>1086</ele>
        <time>2010-01-01T05:23:38Z</time>
      </trkpt>
      <trkpt lat="45.17914" lon="5.52817">
        <ele>1085</ele>
        <time>2010-01-01T05:23:42Z</time>
      </trkpt>
      <trkpt lat="45.17921" lon="5.52821">
        <ele>1083</ele>
        <time>2010-01-01T05:23:46Z</time>
      </trkpt>
      <trkpt lat="45.17928" lon="5.52824">
        <ele>1082</ele>
        <time>2010-01-01T05:23:50Z</time>
      </trkpt>
      <trkpt lat="45.17934" lon="5.52826">
        <ele>1082</ele>
        <time>2010-01-01T05:23:54Z</time>
      </trkpt>
      <trkpt lat="45.17939" lon="5.52825">
        <ele>1082</ele>
        <time>2010-01-01T05:23:58Z</time>
      </trkpt>
      <trkpt lat="45.17943" lon="5.52825">
        <ele>1082</ele>
        <time>2010-01-01T05:24:02Z</time>
      </trkpt>
      <trkpt lat="45.17944" lon="5.52825">
        <ele>1082</ele>
        <time>2010-01-01T05:24:07Z</time>
      </trkpt>
      <trkpt lat="45.17948" lon="5.52823">
        <ele>1082</ele>
        <time>2010-01-01T05:24:11Z</time>
      </trkpt>
      <trkpt lat="45.17953" lon="5.5282">
        <ele>1082</ele>
        <time>2010-01-01T05:24:15Z</time>
      </trkpt>
      <trkpt lat="45.17949" lon="5.52849">
        <ele>1076</ele>
        <time>2010-01-01T05:24:18Z</time>
      </trkpt>
      <trkpt lat="45.17946" lon="5.5287">
        <ele>1072</ele>
        <time>2010-01-01T05:24:21Z</time>
      </trkpt>
      <trkpt lat="45.17942" lon="5.52897">
        <ele>1067</ele>
        <time>2010-01-01T05:24:26Z</time>
      </trkpt>
      <trkpt lat="45.17939" lon="5.52912">
        <ele>1064</ele>
        <time>2010-01-01T05:24:30Z</time>
      </trkpt>
      <trkpt lat="45.17935" lon="5.52922">
        <ele>1062</ele>
        <time>2010-01-01T05:24:32Z</time>
      </trkpt>
      <trkpt lat="45.17933" lon="5.52929">
        <ele>1061</ele>
        <time>2010-01-01T05:24:34Z</time>
      </trkpt>
      <trkpt lat="45.17932" lon="5.52941">
        <ele>1059</ele>
        <time>2010-01-01T05:24:38Z</time>
      </trkpt>
      <trkpt lat="45.17925" lon="5.52967">
        <ele>1053</ele>
        <time>2010-01-01T05:24:42Z</time>
      </trkpt>
      <trkpt lat="45.17912" lon="5.53008">
        <ele>1045</ele>
        <time>2010-01-01T05:24:45Z</time>
      </trkpt>
      <trkpt lat="45.17909" lon="5.5302">
        <ele>1044</ele>
        <time>2010-01-01T05:24:46Z</time>
      </trkpt>
      <trkpt lat="45.17907" lon="5.53028">
        <ele>1042</ele>
        <time>2010-01-01T05:24:48Z</time>
      </trkpt>
      <trkpt lat="45.17907" lon="5.53039">
        <ele>1042</ele>
        <time>2010-01-01T05:24:51Z</time>
      </trkpt>
      <trkpt lat="45.17904" lon="5.53053">
        <ele>1042</ele>
        <time>2010-01-01T05:24:54Z</time>
      </trkpt>
      <trkpt lat="45.17892" lon="5.5309">
        <ele>1041</ele>
        <time>2010-01-01T05:24:57Z</time>
      </trkpt>
      <trkpt lat="45.17875" lon="5.53133">
        <ele>1040</ele>
        <time>2010-01-01T05:25:00Z</time>
      </trkpt>
      <trkpt lat="45.17843" lon="5.53218">
        <ele>1042</ele>
        <time>2010-01-01T05:25:04Z</time>
      </trkpt>
      <trkpt lat="45.17819" lon="5.5328">
        <ele>1041</ele>
        <time>2010-01-01T05:25:06Z</time>
      </trkpt>
      <trkpt lat="45.17796" lon="5.53342">
        <ele>1038</ele>
        <time>2010-01-01T05:25:10Z</time>
      </trkpt>
      <trkpt lat="45.17771" lon="5.5341">
        <ele>1039</ele>
        <time>2010-01-01T05:25:12Z</time>
      </trkpt>
      <trkpt lat="45.17749" lon="5.53461">
        <ele>1039</ele>
        <time>2010-01-01T05:25:15Z</time>
      </trkpt>
      <trkpt lat="45.17727" lon="5.53514">
        <ele>1036</ele>
        <time>2010-01-01T05:25:19Z</time>
      </trkpt>
      <trkpt lat="45.17709" lon="5.53552">
        <ele>1043</ele>
        <time>2010-01-01T05:25:27Z</time>
      </trkpt>
      <trkpt lat="45.17692" lon="5.5359">
        <ele>1048</ele>
        <time>2010-01-01T05:25:38Z</time>
      </trkpt>
      <trkpt lat="45.17675" lon="5.5363">
        <ele>1048</ele>
        <time>2010-01-01T05:25:44Z</time>
      </trkpt>
      <trkpt lat="45.17668" lon="5.53647">
        <ele>1049</ele>
        <time>2010-01-01T05:26:00Z</time>
      </trkpt>
      <trkpt lat="45.17667" lon="5.53658">
        <ele>1049</ele>
        <time>2010-01-01T05:26:18Z</time>
      </trkpt>
      <trkpt lat="45.17662" lon="5.53662">
        <ele>1049</ele>
        <time>2010-01-01T05:26:43Z</time>
      </trkpt>
      <trkpt lat="45.17667" lon="5.53658">
        <ele>1049</ele>
        <time>2010-01-01T05:27:05Z</time>
      </trkpt>
      <trkpt lat="45.1767" lon="5.53668">
        <ele>1050</ele>
        <time>2010-01-01T05:27:15Z</time>
      </trkpt>
      <trkpt lat="45.17671" lon="5.53679">
        <ele>1050</ele>
        <time>2010-01-01T05:27:17Z</time>
      </trkpt>
      <trkpt lat="45.17669" lon="5.53688">
        <ele>1050</ele>
        <time>2010-01-01T05:27:28Z</time>
      </trkpt>
      <trkpt lat="45.17664" lon="5.53706">
        <ele>1051</ele>
        <time>2010-01-01T05:27:37Z</time>
      </trkpt>
      <trkpt lat="45.1766" lon="5.53714">
        <ele>1051</ele>
        <time>2010-01-01T05:28:05Z</time>
      </trkpt>
      <trkpt lat="45.17658" lon="5.53723">
        <ele>1051</ele>
        <time>2010-01-01T05:28:21Z</time>
      </trkpt>
      <trkpt lat="45.17653" lon="5.53738">
        <ele>1050</ele>
        <time>2010-01-01T05:28:30Z</time>
      </trkpt>
      <trkpt lat="45.17648" lon="5.53755">
        <ele>1048</ele>
        <time>2010-01-01T05:28:42Z</time>
      </trkpt>
      <trkpt lat="45.17646" lon="5.53771">
        <ele>1046</ele>
        <time>2010-01-01T05:28:51Z</time>
      </trkpt>
      <trkpt lat="45.17644" lon="5.53788">
        <ele>1045</ele>
        <time>2010-01-01T05:29:05Z</time>
      </trkpt>
      <trkpt lat="45.17643" lon="5.53802">
        <ele>1044</ele>
        <time>2010-01-01T05:29:11Z</time>
      </trkpt>
      <trkpt lat="45.17643" lon="5.5381">
        <ele>1044</ele>
        <time>2010-01-01T05:29:13Z</time>
      </trkpt>
      <trkpt lat="45.17642" lon="5.53823">
        <ele>1044</ele>
        <time>2010-01-01T05:29:17Z</time>
      </trkpt>
      <trkpt lat="45.1764" lon="5.5383">
        <ele>1044</ele>
        <time>2010-01-01T05:29:23Z</time>
      </trkpt>
      <trkpt lat="45.17639" lon="5.53832">
        <ele>1044</ele>
        <time>2010-01-01T05:29:30Z</time>
      </trkpt>
      <trkpt lat="45.17636" lon="5.53836">
        <ele>1043</ele>
        <time>2010-01-01T05:29:36Z</time>
      </trkpt>
      <trkpt lat="45.17626" lon="5.53865">
        <ele>1040</ele>
        <time>2010-01-01T05:29:40Z</time>
      </trkpt>
      <trkpt lat="45.17615" lon="5.53899">
        <ele>1038</ele>
        <time>2010-01-01T05:29:45Z</time>
      </trkpt>
      <trkpt lat="45.17598" lon="5.53953">
        <ele>1039</ele>
        <time>2010-01-01T05:29:54Z</time>
      </trkpt>
      <trkpt lat="45.1759" lon="5.53977">
        <ele>1040</ele>
        <time>2010-01-01T05:30:09Z</time>
      </trkpt>
      <trkpt lat="45.17588" lon="5.53981">
        <ele>1040</ele>
        <time>2010-01-01T05:30:23Z</time>
      </trkpt>
      <trkpt lat="45.1759" lon="5.53977">
        <ele>1040</ele>
        <time>2010-01-01T05:30:28Z</time>
      </trkpt>
      <trkpt lat="45.17591" lon="5.53978">
        <ele>1040</ele>
        <time>2010-01-01T05:30:31Z</time>
      </trkpt>
      <trkpt lat="45.17623" lon="5.53999">
        <ele>1040</ele>
        <time>2010-01-01T05:30:34Z</time>
      </trkpt>
      <trkpt lat="45.17649" lon="5.54018">
        <ele>1039</ele>
        <time>2010-01-01T05:30:44Z</time>
      </trkpt>
      <trkpt lat="45.17673" lon="5.54037">
        <ele>1040</ele>
        <time>2010-01-01T05:30:59Z</time>
      </trkpt>
      <trkpt lat="45.17687" lon="5.54049">
        <ele>1041</ele>
        <time>2010-01-01T05:31:03Z</time>
      </trkpt>
      <trkpt lat="45.17695" lon="5.54057">
        <ele>1043</ele>
        <time>2010-01-01T05:31:05Z</time>
      </trkpt>
      <trkpt lat="45.17703" lon="5.54064">
        <ele>1044</ele>
        <time>2010-01-01T05:31:09Z</time>
      </trkpt>
      <trkpt lat="45.1771" lon="5.54072">
        <ele>1046</ele>
        <time>2010-01-01T05:31:19Z</time>
      </trkpt>
      <trkpt lat="45.17729" lon="5.54092">
        <ele>1048</ele>
        <time>2010-01-01T05:31:43Z</time>
      </trkpt>
      <trkpt lat="45.1775" lon="5.54116">
        <ele>1048</ele>
        <time>2010-01-01T05:32:08Z</time>
      </trkpt>
      <trkpt lat="45.17761" lon="5.54128">
        <ele>1048</ele>
        <time>2010-01-01T05:32:13Z</time>
      </trkpt>
      <trkpt lat="45.1777" lon="5.54137">
        <ele>1047</ele>
        <time>2010-01-01T05:32:20Z</time>
      </trkpt>
      <trkpt lat="45.17774" lon="5.54121">
        <ele>1047</ele>
        <time>2010-01-01T05:32:23Z</time>
      </trkpt>
      <trkpt lat="45.17775" lon="5.54117">
        <ele>1047</ele>
        <time>2010-01-01T05:32:28Z</time>
      </trkpt>
      <trkpt lat="45.17778" lon="5.54105">
        <ele>1048</ele>
        <time>2010-01-01T05:32:32Z</time>
      </trkpt>
      <trkpt lat="45.17783" lon="5.54091">
        <ele>1050</ele>
        <time>2010-01-01T05:32:37Z</time>
      </trkpt>
      <trkpt lat="45.17787" lon="5.54078">
        <ele>1051</ele>
        <time>2010-01-01T05:32:41Z</time>
      </trkpt>
      <trkpt lat="45.17791" lon="5.54066">
        <ele>1052</ele>
        <time>2010-01-01T05:32:46Z</time>
      </trkpt>
      <trkpt lat="45.17795" lon="5.54055">
        <ele>1053</ele>
        <time>2010-01-01T05:32:50Z</time>
      </trkpt>
      <trkpt lat="45.17801" lon="5.5404">
        <ele>1053</ele>
        <time>2010-01-01T05:32:51Z</time>
      </trkpt>
      <trkpt lat="45.17807" lon="5.54027">
        <ele>1053</ele>
        <time>2010-01-01T05:32:53Z</time>
      </trkpt>
      <trkpt lat="45.17812" lon="5.54015">
        <ele>1052</ele>
        <time>2010-01-01T05:32:54Z</time>
      </trkpt>
      <trkpt lat="45.17818" lon="5.54004">
        <ele>1051</ele>
        <time>2010-01-01T05:32:56Z</time>
      </trkpt>
      <trkpt lat="45.17823" lon="5.53995">
        <ele>1050</ele>
        <time>2010-01-01T05:32:57Z</time>
      </trkpt>
      <trkpt lat="45.17829" lon="5.53986">
        <ele>1050</ele>
        <time>2010-01-01T05:32:59Z</time>
      </trkpt>
      <trkpt lat="45.17837" lon="5.53973">
        <ele>1050</ele>
        <time>2010-01-01T05:33:00Z</time>
      </trkpt>
      <trkpt lat="45.17844" lon="5.53964">
        <ele>1049</ele>
        <time>2010-01-01T05:33:02Z</time>
      </trkpt>
      <trkpt lat="45.17848" lon="5.5396">
        <ele>1049</ele>
        <time>2010-01-01T05:33:03Z</time>
      </trkpt>
      <trkpt lat="45.17851" lon="5.53956">
        <ele>1048</ele>
        <time>2010-01-01T05:33:08Z</time>
      </trkpt>
      <trkpt lat="45.1786" lon="5.53946">
        <ele>1048</ele>
        <time>2010-01-01T05:33:12Z</time>
      </trkpt>
      <trkpt lat="45.17868" lon="5.53939">
        <ele>1047</ele>
        <time>2010-01-01T05:33:16Z</time>
      </trkpt>
      <trkpt lat="45.17876" lon="5.53935">
        <ele>1047</ele>
        <time>2010-01-01T05:33:21Z</time>
      </trkpt>
      <trkpt lat="45.17877" lon="5.53934">
        <ele>1047</ele>
        <time>2010-01-01T05:33:25Z</time>
      </trkpt>
      <trkpt lat="45.17878" lon="5.53925">
        <ele>1046</ele>
        <time>2010-01-01T05:33:29Z</time>
      </trkpt>
      <trkpt lat="45.17877" lon="5.53934">
        <ele>1047</ele>
        <time>2010-01-01T05:33:33Z</time>
      </trkpt>
      <trkpt lat="45.17883" lon="5.5393">
        <ele>1047</ele>
        <time>2010-01-01T05:33:37Z</time>
      </trkpt>
      <trkpt lat="45.1789" lon="5.53927">
        <ele>1046</ele>
        <time>2010-01-01T05:33:41Z</time>
      </trkpt>
      <trkpt lat="45.17899" lon="5.53924">
        <ele>1047</ele>
        <time>2010-01-01T05:33:45Z</time>
      </trkpt>
      <trkpt lat="45.17907" lon="5.53922">
        <ele>1048</ele>
        <time>2010-01-01T05:33:48Z</time>
      </trkpt>
      <trkpt lat="45.17914" lon="5.53922">
        <ele>1048</ele>
        <time>2010-01-01T05:33:53Z</time>
      </trkpt>
      <trkpt lat="45.17922" lon="5.53923">
        <ele>1049</ele>
        <time>2010-01-01T05:33:57Z</time>
      </trkpt>
      <trkpt lat="45.17929" lon="5.53924">
        <ele>1049</ele>
        <time>2010-01-01T05:34:01Z</time>
      </trkpt>
      <trkpt lat="45.17936" lon="5.53927">
        <ele>1050</ele>
        <time>2010-01-01T05:34:05Z</time>
      </trkpt>
      <trkpt lat="45.17944" lon="5.53932">
        <ele>1050</ele>
        <time>2010-01-01T05:34:10Z</time>
      </trkpt>
      <trkpt lat="45.17963" lon="5.53944">
        <ele>1050</ele>
        <time>2010-01-01T05:34:13Z</time>
      </trkpt>
      <trkpt lat="45.17987" lon="5.53963">
        <ele>1053</ele>
        <time>2010-01-01T05:34:17Z</time>
      </trkpt>
      <trkpt lat="45.17998" lon="5.53975">
        <ele>1056</ele>
        <time>2010-01-01T05:34:22Z</time>
      </trkpt>
      <trkpt lat="45.18033" lon="5.54003">
        <ele>1064</ele>
        <time>2010-01-01T05:34:25Z</time>
      </trkpt>
      <trkpt lat="45.18058" lon="5.5395">
        <ele>1060</ele>
        <time>2010-01-01T05:34:29Z</time>
      </trkpt>
      <trkpt lat="45.18088" lon="5.53872">
        <ele>1057</ele>
        <time>2010-01-01T05:34:34Z</time>
      </trkpt>
      <trkpt lat="45.18114" lon="5.53802">
        <ele>1062</ele>
        <time>2010-01-01T05:34:38Z</time>
      </trkpt>
      <trkpt lat="45.18125" lon="5.53773">
        <ele>1062</ele>
        <time>2010-01-01T05:34:41Z</time>
      </trkpt>
      <trkpt lat="45.18128" lon="5.53767">
        <ele>1062</ele>
        <time>2010-01-01T05:34:45Z</time>
      </trkpt>
      <trkpt lat="45.18157" lon="5.53763">
        <ele>1063</ele>
        <time>2010-01-01T05:34:49Z</time>
      </trkpt>
      <trkpt lat="45.1818" lon="5.53761">
        <ele>1063</ele>
        <time>2010-01-01T05:34:53Z</time>
      </trkpt>
      <trkpt lat="45.1825" lon="5.5376">
        <ele>1063</ele>
        <time>2010-01-01T05:34:57Z</time>
      </trkpt>
      <trkpt lat="45.18287" lon="5.5375">
        <ele>1069</ele>
        <time>2010-01-01T05:35:02Z</time>
      </trkpt>
      <trkpt lat="45.1831" lon="5.53745">
        <ele>1070</ele>
        <time>2010-01-01T05:35:06Z</time>
      </trkpt>
      <trkpt lat="45.18339" lon="5.53743">
        <ele>1069</ele>
        <time>2010-01-01T05:35:10Z</time>
      </trkpt>
      <trkpt lat="45.18363" lon="5.5374">
        <ele>1067</ele>
        <time>2010-01-01T05:35:14Z</time>
      </trkpt>
      <trkpt lat="45.18398" lon="5.53732">
        <ele>1072</ele>
        <time>2010-01-01T05:35:18Z</time>
      </trkpt>
      <trkpt lat="45.18412" lon="5.53726">
        <ele>1074</ele>
        <time>2010-01-01T05:35:22Z</time>
      </trkpt>
      <trkpt lat="45.18415" lon="5.53722">
        <ele>1074</ele>
        <time>2010-01-01T05:35:27Z</time>
      </trkpt>
      <trkpt lat="45.18422" lon="5.53711">
        <ele>1074</ele>
        <time>2010-01-01T05:35:31Z</time>
      </trkpt>
      <trkpt lat="45.18431" lon="5.53695">
        <ele>1074</ele>
        <time>2010-01-01T05:35:34Z</time>
      </trkpt>
      <trkpt lat="45.18441" lon="5.53672">
        <ele>1077</ele>
        <time>2010-01-01T05:35:38Z</time>
      </trkpt>
      <trkpt lat="45.18449" lon="5.53655">
        <ele>1078</ele>
        <time>2010-01-01T05:35:42Z</time>
      </trkpt>
      <trkpt lat="45.18455" lon="5.53646">
        <ele>1079</ele>
        <time>2010-01-01T05:35:46Z</time>
      </trkpt>
      <trkpt lat="45.18465" lon="5.53635">
        <ele>1080</ele>
        <time>2010-01-01T05:35:50Z</time>
      </trkpt>
      <trkpt lat="45.18487" lon="5.53623">
        <ele>1079</ele>
        <time>2010-01-01T05:35:54Z</time>
      </trkpt>
      <trkpt lat="45.18522" lon="5.53607">
        <ele>1078</ele>
        <time>2010-01-01T05:35:57Z</time>
      </trkpt>
      <trkpt lat="45.18557" lon="5.53601">
        <ele>1086</ele>
        <time>2010-01-01T05:36:01Z</time>
      </trkpt>
      <trkpt lat="45.18569" lon="5.53596">
        <ele>1091</ele>
        <time>2010-01-01T05:36:05Z</time>
      </trkpt>
      <trkpt lat="45.18575" lon="5.53592">
        <ele>1093</ele>
        <time>2010-01-01T05:36:08Z</time>
      </trkpt>
      <trkpt lat="45.18581" lon="5.53584">
        <ele>1096</ele>
        <time>2010-01-01T05:36:12Z</time>
      </trkpt>
      <trkpt lat="45.18592" lon="5.53552">
        <ele>1100</ele>
        <time>2010-01-01T05:36:16Z</time>
      </trkpt>
      <trkpt lat="45.18604" lon="5.53501">
        <ele>1110</ele>
        <time>2010-01-01T05:36:21Z</time>
      </trkpt>
      <trkpt lat="45.18608" lon="5.53489">
        <ele>1112</ele>
        <time>2010-01-01T05:36:25Z</time>
      </trkpt>
      <trkpt lat="45.18614" lon="5.53487">
        <ele>1113</ele>
        <time>2010-01-01T05:36:29Z</time>
      </trkpt>
      <trkpt lat="45.18623" lon="5.53488">
        <ele>1115</ele>
        <time>2010-01-01T05:36:33Z</time>
      </trkpt>
      <trkpt lat="45.18646" lon="5.53498">
        <ele>1118</ele>
        <time>2010-01-01T05:36:36Z</time>
      </trkpt>
      <trkpt lat="45.18703" lon="5.53524">
        <ele>1118</ele>
        <time>2010-01-01T05:36:41Z</time>
      </trkpt>
      <trkpt lat="45.18764" lon="5.53549">
        <ele>1130</ele>
        <time>2010-01-01T05:36:45Z</time>
      </trkpt>
      <trkpt lat="45.18775" lon="5.53553">
        <ele>1131</ele>
        <time>2010-01-01T05:36:49Z</time>
      </trkpt>
      <trkpt lat="45.18793" lon="5.53557">
        <ele>1132</ele>
        <time>2010-01-01T05:36:52Z</time>
      </trkpt>
      <trkpt lat="45.18801" lon="5.53563">
        <ele>1132</ele>
        <time>2010-01-01T05:36:57Z</time>
      </trkpt>
      <trkpt lat="45.18811" lon="5.53567">
        <ele>1133</ele>
        <time>2010-01-01T05:37:01Z</time>
      </trkpt>
      <trkpt lat="45.18821" lon="5.53575">
        <ele>1132</ele>
        <time>2010-01-01T05:37:05Z</time>
      </trkpt>
      <trkpt lat="45.18829" lon="5.53585">
        <ele>1132</ele>
        <time>2010-01-01T05:37:09Z</time>
      </trkpt>
      <trkpt lat="45.18837" lon="5.53595">
        <ele>1133</ele>
        <time>2010-01-01T05:37:12Z</time>
      </trkpt>
      <trkpt lat="45.18847" lon="5.53604">
        <ele>1134</ele>
        <time>2010-01-01T05:37:16Z</time>
      </trkpt>
      <trkpt lat="45.18856" lon="5.5361">
        <ele>1135</ele>
        <time>2010-01-01T05:37:21Z</time>
      </trkpt>
      <trkpt lat="45.18859" lon="5.53613">
        <ele>1135</ele>
        <time>2010-01-01T05:37:26Z</time>
      </trkpt>
      <trkpt lat="45.18863" lon="5.53616">
        <ele>1136</ele>
        <time>2010-01-01T05:37:30Z</time>
      </trkpt>
      <trkpt lat="45.18866" lon="5.53618">
        <ele>1136</ele>
        <time>2010-01-01T05:37:34Z</time>
      </trkpt>
      <trkpt lat="45.1887" lon="5.53621">
        <ele>1136</ele>
        <time>2010-01-01T05:37:38Z</time>
      </trkpt>
      <trkpt lat="45.18873" lon="5.53623">
        <ele>1137</ele>
        <time>2010-01-01T05:37:41Z</time>
      </trkpt>
      <trkpt lat="45.18876" lon="5.53625">
        <ele>1137</ele>
        <time>2010-01-01T05:37:46Z</time>
      </trkpt>
      <trkpt lat="45.1888" lon="5.53627">
        <ele>1137</ele>
        <time>2010-01-01T05:37:50Z</time>
      </trkpt>
      <trkpt lat="45.18883" lon="5.53629">
        <ele>1137</ele>
        <time>2010-01-01T05:37:55Z</time>
      </trkpt>
      <trkpt lat="45.18887" lon="5.53632">
        <ele>1137</ele>
        <time>2010-01-01T05:37:59Z</time>
      </trkpt>
      <trkpt lat="45.18898" lon="5.53637">
        <ele>1138</ele>
        <time>2010-01-01T05:38:02Z</time>
      </trkpt>
      <trkpt lat="45.18908" lon="5.53642">
        <ele>1139</ele>
        <time>2010-01-01T05:38:06Z</time>
      </trkpt>
      <trkpt lat="45.18916" lon="5.53648">
        <ele>1140</ele>
        <time>2010-01-01T05:38:10Z</time>
      </trkpt>
      <trkpt lat="45.18927" lon="5.53654">
        <ele>1142</ele>
        <time>2010-01-01T05:38:15Z</time>
      </trkpt>
      <trkpt lat="45.18936" lon="5.53662">
        <ele>1143</ele>
        <time>2010-01-01T05:38:19Z</time>
      </trkpt>
      <trkpt lat="45.18943" lon="5.53673">
        <ele>1143</ele>
        <time>2010-01-01T05:38:23Z</time>
      </trkpt>
      <trkpt lat="45.18949" lon="5.53683">
        <ele>1143</ele>
        <time>2010-01-01T05:38:27Z</time>
      </trkpt>
      <trkpt lat="45.18955" lon="5.53695">
        <ele>1143</ele>
        <time>2010-01-01T05:38:31Z</time>
      </trkpt>
      <trkpt lat="45.1896" lon="5.53707">
        <ele>1142</ele>
        <time>2010-01-01T05:38:35Z</time>
      </trkpt>
      <trkpt lat="45.18964" lon="5.53719">
        <ele>1141</ele>
        <time>2010-01-01T05:38:39Z</time>
      </trkpt>
      <trkpt lat="45.18968" lon="5.53731">
        <ele>1141</ele>
        <time>2010-01-01T05:38:43Z</time>
      </trkpt>
      <trkpt lat="45.18975" lon="5.53742">
        <ele>1141</ele>
        <time>2010-01-01T05:38:47Z</time>
      </trkpt>
      <trkpt lat="45.18979" lon="5.53755">
        <ele>1140</ele>
        <time>2010-01-01T05:38:51Z</time>
      </trkpt>
      <trkpt lat="45.18988" lon="5.53762">
        <ele>1142</ele>
        <time>2010-01-01T05:38:54Z</time>
      </trkpt>
      <trkpt lat="45.18997" lon="5.5377">
        <ele>1142</ele>
        <time>2010-01-01T05:38:58Z</time>
      </trkpt>
      <trkpt lat="45.19008" lon="5.53776">
        <ele>1143</ele>
        <time>2010-01-01T05:39:02Z</time>
      </trkpt>
      <trkpt lat="45.19015" lon="5.53784">
        <ele>1143</ele>
        <time>2010-01-01T05:39:06Z</time>
      </trkpt>
      <trkpt lat="45.19024" lon="5.53791">
        <ele>1143</ele>
        <time>2010-01-01T05:39:10Z</time>
      </trkpt>
      <trkpt lat="45.19035" lon="5.5379">
        <ele>1145</ele>
        <time>2010-01-01T05:39:13Z</time>
      </trkpt>
      <trkpt lat="45.19044" lon="5.53786">
        <ele>1146</ele>
        <time>2010-01-01T05:39:17Z</time>
      </trkpt>
      <trkpt lat="45.19054" lon="5.53785">
        <ele>1148</ele>
        <time>2010-01-01T05:39:21Z</time>
      </trkpt>
      <trkpt lat="45.19064" lon="5.53781">
        <ele>1149</ele>
        <time>2010-01-01T05:39:25Z</time>
      </trkpt>
      <trkpt lat="45.19074" lon="5.53781">
        <ele>1150</ele>
        <time>2010-01-01T05:39:29Z</time>
      </trkpt>
      <trkpt lat="45.19083" lon="5.53781">
        <ele>1151</ele>
        <time>2010-01-01T05:39:33Z</time>
      </trkpt>
      <trkpt lat="45.1909" lon="5.53789">
        <ele>1152</ele>
        <time>2010-01-01T05:39:38Z</time>
      </trkpt>
      <trkpt lat="45.19088" lon="5.53802">
        <ele>1152</ele>
        <time>2010-01-01T05:39:42Z</time>
      </trkpt>
      <trkpt lat="45.19082" lon="5.53814">
        <ele>1152</ele>
        <time>2010-01-01T05:39:46Z</time>
      </trkpt>
      <trkpt lat="45.19074" lon="5.53826">
        <ele>1150</ele>
        <time>2010-01-01T05:39:50Z</time>
      </trkpt>
      <trkpt lat="45.19068" lon="5.53841">
        <ele>1150</ele>
        <time>2010-01-01T05:39:53Z</time>
      </trkpt>
      <trkpt lat="45.19061" lon="5.53852">
        <ele>1149</ele>
        <time>2010-01-01T05:39:57Z</time>
      </trkpt>
      <trkpt lat="45.19058" lon="5.53865">
        <ele>1149</ele>
        <time>2010-01-01T05:40:01Z</time>
      </trkpt>
      <trkpt lat="45.19058" lon="5.53879">
        <ele>1150</ele>
        <time>2010-01-01T05:40:05Z</time>
      </trkpt>
      <trkpt lat="45.19058" lon="5.53892">
        <ele>1151</ele>
        <time>2010-01-01T05:40:09Z</time>
      </trkpt>
      <trkpt lat="45.19064" lon="5.53903">
        <ele>1152</ele>
        <time>2010-01-01T05:40:13Z</time>
      </trkpt>
      <trkpt lat="45.19074" lon="5.53912">
        <ele>1155</ele>
        <time>2010-01-01T05:40:18Z</time>
      </trkpt>
      <trkpt lat="45.19079" lon="5.53926">
        <ele>1156</ele>
        <time>2010-01-01T05:40:22Z</time>
      </trkpt>
      <trkpt lat="45.19084" lon="5.53936">
        <ele>1157</ele>
        <time>2010-01-01T05:40:25Z</time>
      </trkpt>
      <trkpt lat="45.19083" lon="5.53949">
        <ele>1156</ele>
        <time>2010-01-01T05:40:29Z</time>
      </trkpt>
      <trkpt lat="45.19083" lon="5.53962">
        <ele>1155</ele>
        <time>2010-01-01T05:40:34Z</time>
      </trkpt>
      <trkpt lat="45.19087" lon="5.53975">
        <ele>1154</ele>
        <time>2010-01-01T05:40:38Z</time>
      </trkpt>
      <trkpt lat="45.19093" lon="5.53985">
        <ele>1156</ele>
        <time>2010-01-01T05:40:42Z</time>
      </trkpt>
      <trkpt lat="45.19097" lon="5.53998">
        <ele>1156</ele>
        <time>2010-01-01T05:40:47Z</time>
      </trkpt>
      <trkpt lat="45.19097" lon="5.54011">
        <ele>1156</ele>
        <time>2010-01-01T05:40:51Z</time>
      </trkpt>
      <trkpt lat="45.191" lon="5.54023">
        <ele>1157</ele>
        <time>2010-01-01T05:40:55Z</time>
      </trkpt>
      <trkpt lat="45.19106" lon="5.54033">
        <ele>1158</ele>
        <time>2010-01-01T05:40:59Z</time>
      </trkpt>
      <trkpt lat="45.19108" lon="5.54046">
        <ele>1158</ele>
        <time>2010-01-01T05:41:04Z</time>
      </trkpt>
      <trkpt lat="45.19106" lon="5.54059">
        <ele>1158</ele>
        <time>2010-01-01T05:41:08Z</time>
      </trkpt>
      <trkpt lat="45.19107" lon="5.54073">
        <ele>1158</ele>
        <time>2010-01-01T05:41:12Z</time>
      </trkpt>
      <trkpt lat="45.19112" lon="5.54088">
        <ele>1158</ele>
        <time>2010-01-01T05:41:16Z</time>
      </trkpt>
      <trkpt lat="45.1911" lon="5.54102">
        <ele>1157</ele>
        <time>2010-01-01T05:41:20Z</time>
      </trkpt>
      <trkpt lat="45.19109" lon="5.54116">
        <ele>1156</ele>
        <time>2010-01-01T05:41:24Z</time>
      </trkpt>
      <trkpt lat="45.19117" lon="5.54124">
        <ele>1158</ele>
        <time>2010-01-01T05:41:28Z</time>
      </trkpt>
      <trkpt lat="45.19124" lon="5.54132">
        <ele>1159</ele>
        <time>2010-01-01T05:41:32Z</time>
      </trkpt>
      <trkpt lat="45.19134" lon="5.54141">
        <ele>1161</ele>
        <time>2010-01-01T05:41:36Z</time>
      </trkpt>
      <trkpt lat="45.1914" lon="5.54152">
        <ele>1161</ele>
        <time>2010-01-01T05:41:41Z</time>
      </trkpt>
      <trkpt lat="45.19145" lon="5.54164">
        <ele>1162</ele>
        <time>2010-01-01T05:41:45Z</time>
      </trkpt>
      <trkpt lat="45.1915" lon="5.54175">
        <ele>1163</ele>
        <time>2010-01-01T05:41:49Z</time>
      </trkpt>
      <trkpt lat="45.19155" lon="5.54188">
        <ele>1164</ele>
        <time>2010-01-01T05:41:53Z</time>
      </trkpt>
      <trkpt lat="45.19161" lon="5.542">
        <ele>1165</ele>
        <time>2010-01-01T05:41:57Z</time>
      </trkpt>
      <trkpt lat="45.19168" lon="5.54209">
        <ele>1165</ele>
        <time>2010-01-01T05:42:01Z</time>
      </trkpt>
      <trkpt lat="45.19174" lon="5.5422">
        <ele>1166</ele>
        <time>2010-01-01T05:42:04Z</time>
      </trkpt>
      <trkpt lat="45.19181" lon="5.54229">
        <ele>1168</ele>
        <time>2010-01-01T05:42:05Z</time>
      </trkpt>
      <trkpt lat="45.19189" lon="5.54237">
        <ele>1169</ele>
        <time>2010-01-01T05:42:06Z</time>
      </trkpt>
      <trkpt lat="45.192" lon="5.54244">
        <ele>1172</ele>
        <time>2010-01-01T05:42:07Z</time>
      </trkpt>
      <trkpt lat="45.19212" lon="5.54247">
        <ele>1175</ele>
        <time>2010-01-01T05:42:08Z</time>
      </trkpt>
      <trkpt lat="45.19219" lon="5.54258">
        <ele>1177</ele>
        <time>2010-01-01T05:42:12Z</time>
      </trkpt>
      <trkpt lat="45.19228" lon="5.54265">
        <ele>1180</ele>
        <time>2010-01-01T05:42:13Z</time>
      </trkpt>
      <trkpt lat="45.19234" lon="5.54274">
        <ele>1182</ele>
        <time>2010-01-01T05:42:18Z</time>
      </trkpt>
      <trkpt lat="45.19243" lon="5.54275">
        <ele>1185</ele>
        <time>2010-01-01T05:42:21Z</time>
      </trkpt>
      <trkpt lat="45.19254" lon="5.54276">
        <ele>1188</ele>
        <time>2010-01-01T05:42:26Z</time>
      </trkpt>
      <trkpt lat="45.19263" lon="5.54285">
        <ele>1191</ele>
        <time>2010-01-01T05:42:30Z</time>
      </trkpt>
      <trkpt lat="45.19274" lon="5.54287">
        <ele>1195</ele>
        <time>2010-01-01T05:42:34Z</time>
      </trkpt>
      <trkpt lat="45.19284" lon="5.54292">
        <ele>1198</ele>
        <time>2010-01-01T05:42:38Z</time>
      </trkpt>
      <trkpt lat="45.19292" lon="5.54298">
        <ele>1201</ele>
        <time>2010-01-01T05:42:42Z</time>
      </trkpt>
      <trkpt lat="45.19302" lon="5.54298">
        <ele>1205</ele>
        <time>2010-01-01T05:42:46Z</time>
      </trkpt>
      <trkpt lat="45.19312" lon="5.54299">
        <ele>1208</ele>
        <time>2010-01-01T05:42:50Z</time>
      </trkpt>
      <trkpt lat="45.19323" lon="5.54298">
        <ele>1210</ele>
        <time>2010-01-01T05:42:54Z</time>
      </trkpt>
      <trkpt lat="45.19333" lon="5.54297">
        <ele>1212</ele>
        <time>2010-01-01T05:42:55Z</time>
      </trkpt>
      <trkpt lat="45.19343" lon="5.54294">
        <ele>1214</ele>
        <time>2010-01-01T05:42:59Z</time>
      </trkpt>
      <trkpt lat="45.19353" lon="5.54296">
        <ele>1217</ele>
        <time>2010-01-01T05:43:04Z</time>
      </trkpt>
      <trkpt lat="45.19363" lon="5.54297">
        <ele>1219</ele>
        <time>2010-01-01T05:43:07Z</time>
      </trkpt>
      <trkpt lat="45.19373" lon="5.54299">
        <ele>1222</ele>
        <time>2010-01-01T05:43:11Z</time>
      </trkpt>
      <trkpt lat="45.19383" lon="5.54298">
        <ele>1225</ele>
        <time>2010-01-01T05:43:15Z</time>
      </trkpt>
      <trkpt lat="45.19393" lon="5.54294">
        <ele>1227</ele>
        <time>2010-01-01T05:43:19Z</time>
      </trkpt>
      <trkpt lat="45.19402" lon="5.54297">
        <ele>1229</ele>
        <time>2010-01-01T05:43:23Z</time>
      </trkpt>
      <trkpt lat="45.1941" lon="5.54303">
        <ele>1230</ele>
        <time>2010-01-01T05:43:27Z</time>
      </trkpt>
      <trkpt lat="45.19418" lon="5.54306">
        <ele>1232</ele>
        <time>2010-01-01T05:43:31Z</time>
      </trkpt>
      <trkpt lat="45.19428" lon="5.54309">
        <ele>1233</ele>
        <time>2010-01-01T05:43:36Z</time>
      </trkpt>
      <trkpt lat="45.19439" lon="5.54311">
        <ele>1234</ele>
        <time>2010-01-01T05:43:40Z</time>
      </trkpt>
      <trkpt lat="45.19448" lon="5.54313">
        <ele>1235</ele>
        <time>2010-01-01T05:43:45Z</time>
      </trkpt>
      <trkpt lat="45.19457" lon="5.54312">
        <ele>1238</ele>
        <time>2010-01-01T05:43:49Z</time>
      </trkpt>
      <trkpt lat="45.19466" lon="5.54314">
        <ele>1241</ele>
        <time>2010-01-01T05:43:53Z</time>
      </trkpt>
      <trkpt lat="45.19476" lon="5.54318">
        <ele>1244</ele>
        <time>2010-01-01T05:43:57Z</time>
      </trkpt>
      <trkpt lat="45.19484" lon="5.54321">
        <ele>1247</ele>
        <time>2010-01-01T05:44:00Z</time>
      </trkpt>
      <trkpt lat="45.19493" lon="5.54328">
        <ele>1251</ele>
        <time>2010-01-01T05:44:04Z</time>
      </trkpt>
      <trkpt lat="45.19504" lon="5.54327">
        <ele>1254</ele>
        <time>2010-01-01T05:44:09Z</time>
      </trkpt>
      <trkpt lat="45.19514" lon="5.54325">
        <ele>1257</ele>
        <time>2010-01-01T05:44:13Z</time>
      </trkpt>
      <trkpt lat="45.19524" lon="5.54321">
        <ele>1259</ele>
        <time>2010-01-01T05:44:17Z</time>
      </trkpt>
      <trkpt lat="45.19534" lon="5.54319">
        <ele>1262</ele>
        <time>2010-01-01T05:44:20Z</time>
      </trkpt>
      <trkpt lat="45.19544" lon="5.5432">
        <ele>1265</ele>
        <time>2010-01-01T05:44:24Z</time>
      </trkpt>
      <trkpt lat="45.19554" lon="5.54325">
        <ele>1269</ele>
        <time>2010-01-01T05:44:28Z</time>
      </trkpt>
      <trkpt lat="45.19563" lon="5.54325">
        <ele>1270</ele>
        <time>2010-01-01T05:44:33Z</time>
      </trkpt>
      <trkpt lat="45.19571" lon="5.5433">
        <ele>1272</ele>
        <time>2010-01-01T05:44:37Z</time>
      </trkpt>
      <trkpt lat="45.19582" lon="5.54333">
        <ele>1273</ele>
        <time>2010-01-01T05:44:41Z</time>
      </trkpt>
      <trkpt lat="45.19592" lon="5.54334">
        <ele>1276</ele>
        <time>2010-01-01T05:44:44Z</time>
      </trkpt>
      <trkpt lat="45.19601" lon="5.54339">
        <ele>1279</ele>
        <time>2010-01-01T05:44:49Z</time>
      </trkpt>
      <trkpt lat="45.19611" lon="5.5434">
        <ele>1281</ele>
        <time>2010-01-01T05:44:53Z</time>
      </trkpt>
      <trkpt lat="45.19622" lon="5.54342">
        <ele>1286</ele>
        <time>2010-01-01T05:44:57Z</time>
      </trkpt>
      <trkpt lat="45.19631" lon="5.54347">
        <ele>1289</ele>
        <time>2010-01-01T05:45:01Z</time>
      </trkpt>
      <trkpt lat="45.19639" lon="5.54353">
        <ele>1293</ele>
        <time>2010-01-01T05:45:05Z</time>
      </trkpt>
      <trkpt lat="45.19649" lon="5.54354">
        <ele>1296</ele>
        <time>2010-01-01T05:45:08Z</time>
      </trkpt>
      <trkpt lat="45.1966" lon="5.54359">
        <ele>1299</ele>
        <time>2010-01-01T05:45:12Z</time>
      </trkpt>
      <trkpt lat="45.19669" lon="5.54363">
        <ele>1302</ele>
        <time>2010-01-01T05:45:17Z</time>
      </trkpt>
      <trkpt lat="45.19679" lon="5.5437">
        <ele>1306</ele>
        <time>2010-01-01T05:45:21Z</time>
      </trkpt>
      <trkpt lat="45.1969" lon="5.5437">
        <ele>1308</ele>
        <time>2010-01-01T05:45:24Z</time>
      </trkpt>
      <trkpt lat="45.197" lon="5.54374">
        <ele>1311</ele>
        <time>2010-01-01T05:45:28Z</time>
      </trkpt>
      <trkpt lat="45.19711" lon="5.54373">
        <ele>1314</ele>
        <time>2010-01-01T05:45:32Z</time>
      </trkpt>
      <trkpt lat="45.19721" lon="5.54377">
        <ele>1317</ele>
        <time>2010-01-01T05:45:36Z</time>
      </trkpt>
      <trkpt lat="45.19731" lon="5.54385">
        <ele>1321</ele>
        <time>2010-01-01T05:45:40Z</time>
      </trkpt>
      <trkpt lat="45.19738" lon="5.54395">
        <ele>1324</ele>
        <time>2010-01-01T05:45:43Z</time>
      </trkpt>
      <trkpt lat="45.19745" lon="5.54405">
        <ele>1325</ele>
        <time>2010-01-01T05:45:48Z</time>
      </trkpt>
      <trkpt lat="45.19753" lon="5.54415">
        <ele>1326</ele>
        <time>2010-01-01T05:45:52Z</time>
      </trkpt>
      <trkpt lat="45.19759" lon="5.54427">
        <ele>1328</ele>
        <time>2010-01-01T05:45:56Z</time>
      </trkpt>
      <trkpt lat="45.19764" lon="5.54439">
        <ele>1329</ele>
        <time>2010-01-01T05:46:00Z</time>
      </trkpt>
      <trkpt lat="45.19768" lon="5.54452">
        <ele>1330</ele>
        <time>2010-01-01T05:46:04Z</time>
      </trkpt>
      <trkpt lat="45.19776" lon="5.54459">
        <ele>1333</ele>
        <time>2010-01-01T05:46:08Z</time>
      </trkpt>
      <trkpt lat="45.19784" lon="5.5447">
        <ele>1336</ele>
        <time>2010-01-01T05:46:12Z</time>
      </trkpt>
      <trkpt lat="45.19785" lon="5.54485">
        <ele>1339</ele>
        <time>2010-01-01T05:46:16Z</time>
      </trkpt>
      <trkpt lat="45.19784" lon="5.54499">
        <ele>1341</ele>
        <time>2010-01-01T05:46:20Z</time>
      </trkpt>
      <trkpt lat="45.19787" lon="5.54514">
        <ele>1344</ele>
        <time>2010-01-01T05:46:25Z</time>
      </trkpt>
      <trkpt lat="45.1979" lon="5.54527">
        <ele>1346</ele>
        <time>2010-01-01T05:46:29Z</time>
      </trkpt>
      <trkpt lat="45.19789" lon="5.54541">
        <ele>1346</ele>
        <time>2010-01-01T05:46:33Z</time>
      </trkpt>
      <trkpt lat="45.19791" lon="5.54554">
        <ele>1347</ele>
        <time>2010-01-01T05:46:38Z</time>
      </trkpt>
      <trkpt lat="45.19789" lon="5.54567">
        <ele>1348</ele>
        <time>2010-01-01T05:46:42Z</time>
      </trkpt>
      <trkpt lat="45.19789" lon="5.5457">
        <ele>1348</ele>
        <time>2010-01-01T05:46:46Z</time>
      </trkpt>
      <trkpt lat="45.1979" lon="5.54573">
        <ele>1348</ele>
        <time>2010-01-01T05:46:50Z</time>
      </trkpt>
      <trkpt lat="45.19791" lon="5.54576">
        <ele>1348</ele>
        <time>2010-01-01T05:46:54Z</time>
      </trkpt>
      <trkpt lat="45.1979" lon="5.5458">
        <ele>1348</ele>
        <time>2010-01-01T05:46:58Z</time>
      </trkpt>
      <trkpt lat="45.1979" lon="5.54595">
        <ele>1349</ele>
        <time>2010-01-01T05:47:03Z</time>
      </trkpt>
      <trkpt lat="45.19792" lon="5.54596">
        <ele>1350</ele>
        <time>2010-01-01T05:47:07Z</time>
      </trkpt>
      <trkpt lat="45.19801" lon="5.54604">
        <ele>1352</ele>
        <time>2010-01-01T05:47:11Z</time>
      </trkpt>
      <trkpt lat="45.19806" lon="5.54616">
        <ele>1353</ele>
        <time>2010-01-01T05:47:15Z</time>
      </trkpt>
      <trkpt lat="45.19813" lon="5.54627">
        <ele>1354</ele>
        <time>2010-01-01T05:47:19Z</time>
      </trkpt>
      <trkpt lat="45.19821" lon="5.54637">
        <ele>1355</ele>
        <time>2010-01-01T05:47:23Z</time>
      </trkpt>
      <trkpt lat="45.19828" lon="5.54647">
        <ele>1355</ele>
        <time>2010-01-01T05:47:27Z</time>
      </trkpt>
      <trkpt lat="45.19836" lon="5.54654">
        <ele>1355</ele>
        <time>2010-01-01T05:47:31Z</time>
      </trkpt>
      <trkpt lat="45.19846" lon="5.54657">
        <ele>1354</ele>
        <time>2010-01-01T05:47:36Z</time>
      </trkpt>
      <trkpt lat="45.19854" lon="5.54664">
        <ele>1352</ele>
        <time>2010-01-01T05:47:39Z</time>
      </trkpt>
      <trkpt lat="45.19863" lon="5.54671">
        <ele>1349</ele>
        <time>2010-01-01T05:47:44Z</time>
      </trkpt>
      <trkpt lat="45.19872" lon="5.54677">
        <ele>1347</ele>
        <time>2010-01-01T05:47:48Z</time>
      </trkpt>
      <trkpt lat="45.19876" lon="5.54679">
        <ele>1346</ele>
        <time>2010-01-01T05:47:52Z</time>
      </trkpt>
      <trkpt lat="45.19885" lon="5.54683">
        <ele>1344</ele>
        <time>2010-01-01T05:47:56Z</time>
      </trkpt>
      <trkpt lat="45.19896" lon="5.54679">
        <ele>1343</ele>
        <time>2010-01-01T05:48:00Z</time>
      </trkpt>
      <trkpt lat="45.19904" lon="5.54674">
        <ele>1344</ele>
        <time>2010-01-01T05:48:04Z</time>
      </trkpt>
      <trkpt lat="45.19914" lon="5.54675">
        <ele>1343</ele>
        <time>2010-01-01T05:48:08Z</time>
      </trkpt>
      <trkpt lat="45.19923" lon="5.5468">
        <ele>1342</ele>
        <time>2010-01-01T05:48:12Z</time>
      </trkpt>
      <trkpt lat="45.19932" lon="5.54679">
        <ele>1342</ele>
        <time>2010-01-01T05:48:13Z</time>
      </trkpt>
      <trkpt lat="45.19942" lon="5.54681">
        <ele>1341</ele>
        <time>2010-01-01T05:48:23Z</time>
      </trkpt>
      <trkpt lat="45.19953" lon="5.54681">
        <ele>1342</ele>
        <time>2010-01-01T05:48:44Z</time>
      </trkpt>
      <trkpt lat="45.19963" lon="5.54681">
        <ele>1343</ele>
        <time>2010-01-01T05:48:54Z</time>
      </trkpt>
      <trkpt lat="45.19976" lon="5.54683">
        <ele>1343</ele>
        <time>2010-01-01T05:49:00Z</time>
      </trkpt>
      <trkpt lat="45.19986" lon="5.54687">
        <ele>1343</ele>
        <time>2010-01-01T05:49:10Z</time>
      </trkpt>
      <trkpt lat="45.19996" lon="5.54693">
        <ele>1343</ele>
        <time>2010-01-01T05:49:20Z</time>
      </trkpt>
      <trkpt lat="45.20006" lon="5.54695">
        <ele>1345</ele>
        <time>2010-01-01T05:49:26Z</time>
      </trkpt>
      <trkpt lat="45.20012" lon="5.54705">
        <ele>1344</ele>
        <time>2010-01-01T05:49:33Z</time>
      </trkpt>
      <trkpt lat="45.20019" lon="5.54715">
        <ele>1344</ele>
        <time>2010-01-01T05:49:45Z</time>
      </trkpt>
      <trkpt lat="45.20025" lon="5.54726">
        <ele>1344</ele>
        <time>2010-01-01T05:49:49Z</time>
      </trkpt>
      <trkpt lat="45.2003" lon="5.54737">
        <ele>1343</ele>
        <time>2010-01-01T05:50:03Z</time>
      </trkpt>
      <trkpt lat="45.20038" lon="5.54749">
        <ele>1342</ele>
        <time>2010-01-01T05:50:04Z</time>
      </trkpt>
      <trkpt lat="45.20044" lon="5.54761">
        <ele>1341</ele>
        <time>2010-01-01T05:50:05Z</time>
      </trkpt>
      <trkpt lat="45.20048" lon="5.54773">
        <ele>1339</ele>
        <time>2010-01-01T05:50:17Z</time>
      </trkpt>
      <trkpt lat="45.20053" lon="5.54784">
        <ele>1338</ele>
        <time>2010-01-01T05:50:37Z</time>
      </trkpt>
      <trkpt lat="45.20056" lon="5.54797">
        <ele>1338</ele>
        <time>2010-01-01T05:50:42Z</time>
      </trkpt>
      <trkpt lat="45.20062" lon="5.54809">
        <ele>1338</ele>
        <time>2010-01-01T05:50:43Z</time>
      </trkpt>
      <trkpt lat="45.20069" lon="5.54821">
        <ele>1339</ele>
        <time>2010-01-01T05:50:58Z</time>
      </trkpt>
      <trkpt lat="45.20073" lon="5.54834">
        <ele>1339</ele>
        <time>2010-01-01T05:51:08Z</time>
      </trkpt>
      <trkpt lat="45.20079" lon="5.54845">
        <ele>1340</ele>
        <time>2010-01-01T05:51:21Z</time>
      </trkpt>
      <trkpt lat="45.20081" lon="5.54858">
        <ele>1339</ele>
        <time>2010-01-01T05:51:35Z</time>
      </trkpt>
      <trkpt lat="45.20085" lon="5.54872">
        <ele>1339</ele>
        <time>2010-01-01T05:51:46Z</time>
      </trkpt>
      <trkpt lat="45.20087" lon="5.54886">
        <ele>1339</ele>
        <time>2010-01-01T05:51:46Z</time>
      </trkpt>
      <trkpt lat="45.20086" lon="5.54901">
        <ele>1337</ele>
        <time>2010-01-01T05:52:52Z</time>
      </trkpt>
      <trkpt lat="45.20086" lon="5.54915">
        <ele>1336</ele>
        <time>2010-01-01T05:53:07Z</time>
      </trkpt>
      <trkpt lat="45.20084" lon="5.54928">
        <ele>1334</ele>
        <time>2010-01-01T05:53:10Z</time>
      </trkpt>
      <trkpt lat="45.20082" lon="5.54941">
        <ele>1333</ele>
        <time>2010-01-01T05:53:24Z</time>
      </trkpt>
      <trkpt lat="45.20079" lon="5.54954">
        <ele>1331</ele>
        <time>2010-01-01T05:53:28Z</time>
      </trkpt>
      <trkpt lat="45.20078" lon="5.5497">
        <ele>1330</ele>
        <time>2010-01-01T05:53:44Z</time>
      </trkpt>
      <trkpt lat="45.20076" lon="5.54983">
        <ele>1328</ele>
        <time>2010-01-01T05:53:51Z</time>
      </trkpt>
      <trkpt lat="45.20079" lon="5.54995">
        <ele>1327</ele>
        <time>2010-01-01T05:53:55Z</time>
      </trkpt>
      <trkpt lat="45.20084" lon="5.55007">
        <ele>1326</ele>
        <time>2010-01-01T05:54:06Z</time>
      </trkpt>
      <trkpt lat="45.20091" lon="5.55016">
        <ele>1327</ele>
        <time>2010-01-01T05:54:14Z</time>
      </trkpt>
      <trkpt lat="45.20101" lon="5.55018">
        <ele>1328</ele>
        <time>2010-01-01T05:54:15Z</time>
      </trkpt>
      <trkpt lat="45.2011" lon="5.55021">
        <ele>1329</ele>
        <time>2010-01-01T05:54:22Z</time>
      </trkpt>
      <trkpt lat="45.20119" lon="5.55023">
        <ele>1331</ele>
        <time>2010-01-01T05:54:32Z</time>
      </trkpt>
      <trkpt lat="45.20129" lon="5.55031">
        <ele>1331</ele>
        <time>2010-01-01T05:54:41Z</time>
      </trkpt>
      <trkpt lat="45.20136" lon="5.55043">
        <ele>1331</ele>
        <time>2010-01-01T05:54:48Z</time>
      </trkpt>
      <trkpt lat="45.2014" lon="5.55055">
        <ele>1330</ele>
        <time>2010-01-01T05:54:56Z</time>
      </trkpt>
      <trkpt lat="45.20146" lon="5.55066">
        <ele>1329</ele>
        <time>2010-01-01T05:55:06Z</time>
      </trkpt>
      <trkpt lat="45.20153" lon="5.55077">
        <ele>1329</ele>
        <time>2010-01-01T05:55:15Z</time>
      </trkpt>
      <trkpt lat="45.20163" lon="5.5508">
        <ele>1331</ele>
        <time>2010-01-01T05:55:31Z</time>
      </trkpt>
      <trkpt lat="45.20172" lon="5.55084">
        <ele>1332</ele>
        <time>2010-01-01T05:55:31Z</time>
      </trkpt>
      <trkpt lat="45.20182" lon="5.55085">
        <ele>1334</ele>
        <time>2010-01-01T05:55:31Z</time>
      </trkpt>
      <trkpt lat="45.20184" lon="5.55099">
        <ele>1332</ele>
        <time>2010-01-01T05:55:43Z</time>
      </trkpt>
      <trkpt lat="45.20184" lon="5.55116">
        <ele>1330</ele>
        <time>2010-01-01T05:55:56Z</time>
      </trkpt>
      <trkpt lat="45.20185" lon="5.55131">
        <ele>1329</ele>
        <time>2010-01-01T05:56:01Z</time>
      </trkpt>
      <trkpt lat="45.20182" lon="5.55145">
        <ele>1326</ele>
        <time>2010-01-01T05:56:04Z</time>
      </trkpt>
      <trkpt lat="45.2018" lon="5.55161">
        <ele>1325</ele>
        <time>2010-01-01T05:56:08Z</time>
      </trkpt>
      <trkpt lat="45.20178" lon="5.55177">
        <ele>1324</ele>
        <time>2010-01-01T05:56:16Z</time>
      </trkpt>
      <trkpt lat="45.20176" lon="5.5519">
        <ele>1323</ele>
        <time>2010-01-01T05:56:21Z</time>
      </trkpt>
      <trkpt lat="45.20172" lon="5.55202">
        <ele>1322</ele>
        <time>2010-01-01T05:56:30Z</time>
      </trkpt>
      <trkpt lat="45.2017" lon="5.55217">
        <ele>1320</ele>
        <time>2010-01-01T05:56:43Z</time>
      </trkpt>
      <trkpt lat="45.20169" lon="5.55232">
        <ele>1319</ele>
        <time>2010-01-01T05:56:46Z</time>
      </trkpt>
      <trkpt lat="45.20166" lon="5.55246">
        <ele>1318</ele>
        <time>2010-01-01T05:56:50Z</time>
      </trkpt>
      <trkpt lat="45.20161" lon="5.55261">
        <ele>1318</ele>
        <time>2010-01-01T05:56:55Z</time>
      </trkpt>
      <trkpt lat="45.20159" lon="5.55274">
        <ele>1319</ele>
        <time>2010-01-01T05:57:01Z</time>
      </trkpt>
      <trkpt lat="45.20166" lon="5.55286">
        <ele>1321</ele>
        <time>2010-01-01T05:57:06Z</time>
      </trkpt>
      <trkpt lat="45.20174" lon="5.55291">
        <ele>1323</ele>
        <time>2010-01-01T05:57:10Z</time>
      </trkpt>
      <trkpt lat="45.20183" lon="5.55295">
        <ele>1324</ele>
        <time>2010-01-01T05:57:16Z</time>
      </trkpt>
      <trkpt lat="45.20193" lon="5.553">
        <ele>1325</ele>
        <time>2010-01-01T05:57:26Z</time>
      </trkpt>
      <trkpt lat="45.20202" lon="5.55305">
        <ele>1327</ele>
        <time>2010-01-01T05:57:32Z</time>
      </trkpt>
      <trkpt lat="45.20214" lon="5.5531">
        <ele>1328</ele>
        <time>2010-01-01T05:57:37Z</time>
      </trkpt>
      <trkpt lat="45.20223" lon="5.55312">
        <ele>1329</ele>
        <time>2010-01-01T05:57:40Z</time>
      </trkpt>
      <trkpt lat="45.20234" lon="5.55313">
        <ele>1330</ele>
        <time>2010-01-01T05:57:42Z</time>
      </trkpt>
      <trkpt lat="45.20243" lon="5.55316">
        <ele>1330</ele>
        <time>2010-01-01T05:57:50Z</time>
      </trkpt>
      <trkpt lat="45.20252" lon="5.55324">
        <ele>1330</ele>
        <time>2010-01-01T05:57:53Z</time>
      </trkpt>
      <trkpt lat="45.20261" lon="5.55331">
        <ele>1329</ele>
        <time>2010-01-01T05:57:58Z</time>
      </trkpt>
      <trkpt lat="45.20269" lon="5.55339">
        <ele>1328</ele>
        <time>2010-01-01T05:58:03Z</time>
      </trkpt>
      <trkpt lat="45.20278" lon="5.55347">
        <ele>1327</ele>
        <time>2010-01-01T05:58:06Z</time>
      </trkpt>
      <trkpt lat="45.20287" lon="5.5535">
        <ele>1326</ele>
        <time>2010-01-01T05:58:08Z</time>
      </trkpt>
      <trkpt lat="45.20297" lon="5.55348">
        <ele>1326</ele>
        <time>2010-01-01T05:58:17Z</time>
      </trkpt>
      <trkpt lat="45.20297" lon="5.55345">
        <ele>1327</ele>
        <time>2010-01-01T05:58:22Z</time>
      </trkpt>
      <trkpt lat="45.20323" lon="5.55346">
        <ele>1323</ele>
        <time>2010-01-01T05:58:27Z</time>
      </trkpt>
      <trkpt lat="45.20372" lon="5.55366">
        <ele>1319</ele>
        <time>2010-01-01T05:58:36Z</time>
      </trkpt>
      <trkpt lat="45.20399" lon="5.55371">
        <ele>1324</ele>
        <time>2010-01-01T05:58:42Z</time>
      </trkpt>
      <trkpt lat="45.20411" lon="5.5538">
        <ele>1326</ele>
        <time>2010-01-01T05:58:48Z</time>
      </trkpt>
      <trkpt lat="45.20426" lon="5.55408">
        <ele>1326</ele>
        <time>2010-01-01T05:58:56Z</time>
      </trkpt>
      <trkpt lat="45.20436" lon="5.55443">
        <ele>1325</ele>
        <time>2010-01-01T05:59:09Z</time>
      </trkpt>
      <trkpt lat="45.20441" lon="5.55462">
        <ele>1324</ele>
        <time>2010-01-01T05:59:14Z</time>
      </trkpt>
      <trkpt lat="45.20451" lon="5.5548">
        <ele>1323</ele>
        <time>2010-01-01T05:59:19Z</time>
      </trkpt>
      <trkpt lat="45.20478" lon="5.55502">
        <ele>1324</ele>
        <time>2010-01-01T05:59:29Z</time>
      </trkpt>
      <trkpt lat="45.20483" lon="5.55512">
        <ele>1323</ele>
        <time>2010-01-01T05:59:32Z</time>
      </trkpt>
      <trkpt lat="45.20489" lon="5.55562">
        <ele>1320</ele>
        <time>2010-01-01T05:59:35Z</time>
      </trkpt>
      <trkpt lat="45.20491" lon="5.55561">
        <ele>1320</ele>
        <time>2010-01-01T05:59:40Z</time>
      </trkpt>
      <trkpt lat="45.20489" lon="5.55562">
        <ele>1320</ele>
        <time>2010-01-01T05:59:48Z</time>
      </trkpt>
      <trkpt lat="45.20459" lon="5.55565">
        <ele>1316</ele>
        <time>2010-01-01T05:59:53Z</time>
      </trkpt>
      <trkpt lat="45.20409" lon="5.55552">
        <ele>1309</ele>
        <time>2010-01-01T05:59:56Z</time>
      </trkpt>
      <trkpt lat="45.2042" lon="5.55563">
        <ele>1310</ele>
        <time>2010-01-01T05:59:57Z</time>
      </trkpt>
      <trkpt lat="45.20421" lon="5.55563">
        <ele>1310</ele>
        <time>2010-01-01T06:00:00Z</time>
      </trkpt>
      <trkpt lat="45.20439" lon="5.55611">
        <ele>1310</ele>
        <time>2010-01-01T06:00:23Z</time>
      </trkpt>
      <trkpt lat="45.20443" lon="5.55647">
        <ele>1310</ele>
        <time>2010-01-01T06:00:26Z</time>
      </trkpt>
      <trkpt lat="45.20455" lon="5.55687">
        <ele>1309</ele>
        <time>2010-01-01T06:00:29Z</time>
      </trkpt>
      <trkpt lat="45.20475" lon="5.55731">
        <ele>1307</ele>
        <time>2010-01-01T06:00:32Z</time>
      </trkpt>
      <trkpt lat="45.20499" lon="5.55749">
        <ele>1306</ele>
        <time>2010-01-01T06:00:36Z</time>
      </trkpt>
      <trkpt lat="45.20499" lon="5.5575">
        <ele>1306</ele>
        <time>2010-01-01T06:00:38Z</time>
      </trkpt>
      <trkpt lat="45.20662" lon="5.55773">
        <ele>1290</ele>
        <time>2010-01-01T06:00:40Z</time>
      </trkpt>
      <trkpt lat="45.207" lon="5.55765">
        <ele>1284</ele>
        <time>2010-01-01T06:00:45Z</time>
      </trkpt>
      <trkpt lat="45.20707" lon="5.55764">
        <ele>1284</ele>
        <time>2010-01-01T06:00:47Z</time>
      </trkpt>
      <trkpt lat="45.20687" lon="5.55804">
        <ele>1284</ele>
        <time>2010-01-01T06:00:50Z</time>
      </trkpt>
      <trkpt lat="45.20685" lon="5.55817">
        <ele>1284</ele>
        <time>2010-01-01T06:00:54Z</time>
      </trkpt>
      <trkpt lat="45.20671" lon="5.5587">
        <ele>1282</ele>
        <time>2010-01-01T06:01:01Z</time>
      </trkpt>
      <trkpt lat="45.20663" lon="5.55892">
        <ele>1282</ele>
        <time>2010-01-01T06:01:11Z</time>
      </trkpt>
      <trkpt lat="45.20659" lon="5.55905">
        <ele>1283</ele>
        <time>2010-01-01T06:01:21Z</time>
      </trkpt>
      <trkpt lat="45.20639" lon="5.55932">
        <ele>1286</ele>
        <time>2010-01-01T06:01:34Z</time>
      </trkpt>
      <trkpt lat="45.20623" lon="5.55947">
        <ele>1286</ele>
        <time>2010-01-01T06:01:39Z</time>
      </trkpt>
      <trkpt lat="45.20622" lon="5.55953">
        <ele>1286</ele>
        <time>2010-01-01T06:01:43Z</time>
      </trkpt>
      <trkpt lat="45.20619" lon="5.55975">
        <ele>1287</ele>
        <time>2010-01-01T06:01:44Z</time>
      </trkpt>
      <trkpt lat="45.20614" lon="5.56011">
        <ele>1290</ele>
        <time>2010-01-01T06:01:47Z</time>
      </trkpt>
      <trkpt lat="45.20598" lon="5.56035">
        <ele>1289</ele>
        <time>2010-01-01T06:01:55Z</time>
      </trkpt>
      <trkpt lat="45.2059" lon="5.56058">
        <ele>1289</ele>
        <time>2010-01-01T06:02:04Z</time>
      </trkpt>
      <trkpt lat="45.20582" lon="5.56081">
        <ele>1291</ele>
        <time>2010-01-01T06:02:06Z</time>
      </trkpt>
      <trkpt lat="45.20565" lon="5.5611">
        <ele>1296</ele>
        <time>2010-01-01T06:02:23Z</time>
      </trkpt>
      <trkpt lat="45.20545" lon="5.56124">
        <ele>1302</ele>
        <time>2010-01-01T06:02:49Z</time>
      </trkpt>
      <trkpt lat="45.20507" lon="5.56132">
        <ele>1307</ele>
        <time>2010-01-01T06:03:01Z</time>
      </trkpt>
      <trkpt lat="45.20506" lon="5.56132">
        <ele>1307</ele>
        <time>2010-01-01T06:03:10Z</time>
      </trkpt>
      <trkpt lat="45.20507" lon="5.56132">
        <ele>1307</ele>
        <time>2010-01-01T06:03:14Z</time>
      </trkpt>
      <trkpt lat="45.20489" lon="5.56162">
        <ele>1309</ele>
        <time>2010-01-01T06:03:22Z</time>
      </trkpt>
      <trkpt lat="45.20477" lon="5.56205">
        <ele>1312</ele>
        <time>2010-01-01T06:03:27Z</time>
      </trkpt>
      <trkpt lat="45.20472" lon="5.56222">
        <ele>1312</ele>
        <time>2010-01-01T06:03:28Z</time>
      </trkpt>
      <trkpt lat="45.20468" lon="5.56233">
        <ele>1313</ele>
        <time>2010-01-01T06:03:35Z</time>
      </trkpt>
      <trkpt lat="45.20476" lon="5.56231">
        <ele>1313</ele>
        <time>2010-01-01T06:03:39Z</time>
      </trkpt>
      <trkpt lat="45.20497" lon="5.56231">
        <ele>1316</ele>
        <time>2010-01-01T06:03:41Z</time>
      </trkpt>
      <trkpt lat="45.20509" lon="5.56232">
        <ele>1317</ele>
        <time>2010-01-01T06:03:41Z</time>
      </trkpt>
      <trkpt lat="45.20532" lon="5.56238">
        <ele>1319</ele>
        <time>2010-01-01T06:03:43Z</time>
      </trkpt>
      <trkpt lat="45.20564" lon="5.5625">
        <ele>1323</ele>
        <time>2010-01-01T06:03:46Z</time>
      </trkpt>
      <trkpt lat="45.20571" lon="5.56252">
        <ele>1324</ele>
        <time>2010-01-01T06:03:48Z</time>
      </trkpt>
      <trkpt lat="45.20579" lon="5.56255">
        <ele>1325</ele>
        <time>2010-01-01T06:03:54Z</time>
      </trkpt>
      <trkpt lat="45.20593" lon="5.56251">
        <ele>1327</ele>
        <time>2010-01-01T06:03:58Z</time>
      </trkpt>
      <trkpt lat="45.20606" lon="5.56245">
        <ele>1328</ele>
        <time>2010-01-01T06:04:01Z</time>
      </trkpt>
      <trkpt lat="45.20617" lon="5.56233">
        <ele>1328</ele>
        <time>2010-01-01T06:04:05Z</time>
      </trkpt>
      <trkpt lat="45.20624" lon="5.56223">
        <ele>1327</ele>
        <time>2010-01-01T06:04:08Z</time>
      </trkpt>
      <trkpt lat="45.20637" lon="5.56218">
        <ele>1327</ele>
        <time>2010-01-01T06:04:13Z</time>
      </trkpt>
      <trkpt lat="45.20662" lon="5.56212">
        <ele>1328</ele>
        <time>2010-01-01T06:04:19Z</time>
      </trkpt>
      <trkpt lat="45.20678" lon="5.56206">
        <ele>1328</ele>
        <time>2010-01-01T06:04:20Z</time>
      </trkpt>
      <trkpt lat="45.20687" lon="5.56199">
        <ele>1328</ele>
        <time>2010-01-01T06:04:21Z</time>
      </trkpt>
      <trkpt lat="45.20694" lon="5.56195">
        <ele>1329</ele>
        <time>2010-01-01T06:04:22Z</time>
      </trkpt>
      <trkpt lat="45.20701" lon="5.56196">
        <ele>1329</ele>
        <time>2010-01-01T06:04:27Z</time>
      </trkpt>
      <trkpt lat="45.20719" lon="5.56204">
        <ele>1331</ele>
        <time>2010-01-01T06:04:27Z</time>
      </trkpt>
      <trkpt lat="45.20725" lon="5.56212">
        <ele>1331</ele>
        <time>2010-01-01T06:04:29Z</time>
      </trkpt>
      <trkpt lat="45.20728" lon="5.56227">
        <ele>1332</ele>
        <time>2010-01-01T06:04:32Z</time>
      </trkpt>
      <trkpt lat="45.20728" lon="5.56246">
        <ele>1332</ele>
        <time>2010-01-01T06:04:36Z</time>
      </trkpt>
      <trkpt lat="45.20729" lon="5.56256">
        <ele>1333</ele>
        <time>2010-01-01T06:04:38Z</time>
      </trkpt>
      <trkpt lat="45.20733" lon="5.56263">
        <ele>1333</ele>
        <time>2010-01-01T06:04:43Z</time>
      </trkpt>
      <trkpt lat="45.20752" lon="5.56274">
        <ele>1333</ele>
        <time>2010-01-01T06:04:45Z</time>
      </trkpt>
      <trkpt lat="45.20765" lon="5.5628">
        <ele>1334</ele>
        <time>2010-01-01T06:04:52Z</time>
      </trkpt>
      <trkpt lat="45.20775" lon="5.56289">
        <ele>1334</ele>
        <time>2010-01-01T06:05:01Z</time>
      </trkpt>
      <trkpt lat="45.2079" lon="5.56314">
        <ele>1336</ele>
        <time>2010-01-01T06:05:05Z</time>
      </trkpt>
      <trkpt lat="45.20801" lon="5.56326">
        <ele>1337</ele>
        <time>2010-01-01T06:05:14Z</time>
      </trkpt>
      <trkpt lat="45.20815" lon="5.56335">
        <ele>1339</ele>
        <time>2010-01-01T06:05:23Z</time>
      </trkpt>
      <trkpt lat="45.20835" lon="5.56346">
        <ele>1341</ele>
        <time>2010-01-01T06:05:30Z</time>
      </trkpt>
      <trkpt lat="45.20859" lon="5.56373">
        <ele>1340</ele>
        <time>2010-01-01T06:05:44Z</time>
      </trkpt>
      <trkpt lat="45.2087" lon="5.56381">
        <ele>1339</ele>
        <time>2010-01-01T06:05:57Z</time>
      </trkpt>
      <trkpt lat="45.20884" lon="5.56383">
        <ele>1338</ele>
        <time>2010-01-01T06:05:57Z</time>
      </trkpt>
      <trkpt lat="45.20909" lon="5.56383">
        <ele>1338</ele>
        <time>2010-01-01T06:06:01Z</time>
      </trkpt>
      <trkpt lat="45.20916" lon="5.56387">
        <ele>1338</ele>
        <time>2010-01-01T06:06:17Z</time>
      </trkpt>
      <trkpt lat="45.20921" lon="5.56394">
        <ele>1336</ele>
        <time>2010-01-01T06:06:29Z</time>
      </trkpt>
      <trkpt lat="45.20924" lon="5.56411">
        <ele>1333</ele>
        <time>2010-01-01T06:06:40Z</time>
      </trkpt>
      <trkpt lat="45.20924" lon="5.56438">
        <ele>1330</ele>
        <time>2010-01-01T06:06:49Z</time>
      </trkpt>
      <trkpt lat="45.20922" lon="5.56457">
        <ele>1329</ele>
        <time>2010-01-01T06:07:18Z</time>
      </trkpt>
      <trkpt lat="45.2092" lon="5.56467">
        <ele>1327</ele>
        <time>2010-01-01T06:07:30Z</time>
      </trkpt>
      <trkpt lat="45.20921" lon="5.56472">
        <ele>1327</ele>
        <time>2010-01-01T06:07:43Z</time>
      </trkpt>
      <trkpt lat="45.20927" lon="5.56475">
        <ele>1327</ele>
        <time>2010-01-01T06:07:51Z</time>
      </trkpt>
      <trkpt lat="45.20985" lon="5.56479">
        <ele>1323</ele>
        <time>2010-01-01T06:08:01Z</time>
      </trkpt>
      <trkpt lat="45.20992" lon="5.56482">
        <ele>1322</ele>
        <time>2010-01-01T06:08:31Z</time>
      </trkpt>
      <trkpt lat="45.20998" lon="5.56487">
        <ele>1320</ele>
        <time>2010-01-01T06:08:32Z</time>
      </trkpt>
      <trkpt lat="45.21004" lon="5.56496">
        <ele>1319</ele>
        <time>2010-01-01T06:08:44Z</time>
      </trkpt>
      <trkpt lat="45.21011" lon="5.56502">
        <ele>1317</ele>
        <time>2010-01-01T06:08:48Z</time>
      </trkpt>
      <trkpt lat="45.21016" lon="5.56505">
        <ele>1316</ele>
        <time>2010-01-01T06:08:51Z</time>
      </trkpt>
      <trkpt lat="45.2102" lon="5.56507">
        <ele>1315</ele>
        <time>2010-01-01T06:09:01Z</time>
      </trkpt>
      <trkpt lat="45.21034" lon="5.56508">
        <ele>1313</ele>
        <time>2010-01-01T06:09:20Z</time>
      </trkpt>
      <trkpt lat="45.21037" lon="5.56505">
        <ele>1313</ele>
        <time>2010-01-01T06:09:28Z</time>
      </trkpt>
      <trkpt lat="45.21044" lon="5.56501">
        <ele>1312</ele>
        <time>2010-01-01T06:09:50Z</time>
      </trkpt>
      <trkpt lat="45.21054" lon="5.56498">
        <ele>1310</ele>
        <time>2010-01-01T06:09:56Z</time>
      </trkpt>
      <trkpt lat="45.21073" lon="5.56495">
        <ele>1310</ele>
        <time>2010-01-01T06:09:59Z</time>
      </trkpt>
      <trkpt lat="45.21098" lon="5.56493">
        <ele>1310</ele>
        <time>2010-01-01T06:10:02Z</time>
      </trkpt>
      <trkpt lat="45.21121" lon="5.56489">
        <ele>1311</ele>
        <time>2010-01-01T06:10:16Z</time>
      </trkpt>
      <trkpt lat="45.21153" lon="5.56481">
        <ele>1310</ele>
        <time>2010-01-01T06:10:28Z</time>
      </trkpt>
      <trkpt lat="45.21167" lon="5.56476">
        <ele>1309</ele>
        <time>2010-01-01T06:10:46Z</time>
      </trkpt>
      <trkpt lat="45.21176" lon="5.56471">
        <ele>1309</ele>
        <time>2010-01-01T06:11:00Z</time>
      </trkpt>
      <trkpt lat="45.21176" lon="5.56472">
        <ele>1309</ele>
        <time>2010-01-01T06:11:09Z</time>
      </trkpt>
      <trkpt lat="45.2117" lon="5.56478">
        <ele>1309</ele>
        <time>2010-01-01T06:11:15Z</time>
      </trkpt>
      <trkpt lat="45.21187" lon="5.56498">
        <ele>1313</ele>
        <time>2010-01-01T06:11:20Z</time>
      </trkpt>
      <trkpt lat="45.21205" lon="5.56516">
        <ele>1316</ele>
        <time>2010-01-01T06:11:45Z</time>
      </trkpt>
      <trkpt lat="45.21209" lon="5.56521">
        <ele>1316</ele>
        <time>2010-01-01T06:13:01Z</time>
      </trkpt>
      <trkpt lat="45.2124" lon="5.5656">
        <ele>1319</ele>
        <time>2010-01-01T06:13:23Z</time>
      </trkpt>
      <trkpt lat="45.21292" lon="5.56618">
        <ele>1323</ele>
        <time>2010-01-01T06:13:27Z</time>
      </trkpt>
      <trkpt lat="45.21313" lon="5.56646">
        <ele>1326</ele>
        <time>2010-01-01T06:13:28Z</time>
      </trkpt>
      <trkpt lat="45.21324" lon="5.56676">
        <ele>1328</ele>
        <time>2010-01-01T06:13:28Z</time>
      </trkpt>
      <trkpt lat="45.21328" lon="5.56688">
        <ele>1328</ele>
        <time>2010-01-01T06:13:29Z</time>
      </trkpt>
      <trkpt lat="45.21342" lon="5.56708">
        <ele>1329</ele>
        <time>2010-01-01T06:13:30Z</time>
      </trkpt>
      <trkpt lat="45.21353" lon="5.56711">
        <ele>1329</ele>
        <time>2010-01-01T06:13:30Z</time>
      </trkpt>
      <trkpt lat="45.21354" lon="5.56715">
        <ele>1329</ele>
        <time>2010-01-01T06:13:35Z</time>
      </trkpt>
      <trkpt lat="45.2135" lon="5.56739">
        <ele>1328</ele>
        <time>2010-01-01T06:13:36Z</time>
      </trkpt>
      <trkpt lat="45.21352" lon="5.56753">
        <ele>1327</ele>
        <time>2010-01-01T06:13:36Z</time>
      </trkpt>
      <trkpt lat="45.21352" lon="5.5676">
        <ele>1327</ele>
        <time>2010-01-01T06:13:44Z</time>
      </trkpt>
      <trkpt lat="45.21353" lon="5.56761">
        <ele>1327</ele>
        <time>2010-01-01T06:13:49Z</time>
      </trkpt>
      <trkpt lat="45.21355" lon="5.56765">
        <ele>1326</ele>
        <time>2010-01-01T06:13:54Z</time>
      </trkpt>
      <trkpt lat="45.21351" lon="5.56776">
        <ele>1326</ele>
        <time>2010-01-01T06:14:00Z</time>
      </trkpt>
      <trkpt lat="45.21355" lon="5.56772">
        <ele>1326</ele>
        <time>2010-01-01T06:14:13Z</time>
      </trkpt>
      <trkpt lat="45.21369" lon="5.56781">
        <ele>1325</ele>
        <time>2010-01-01T06:14:26Z</time>
      </trkpt>
      <trkpt lat="45.21376" lon="5.56787">
        <ele>1324</ele>
        <time>2010-01-01T06:14:39Z</time>
      </trkpt>
      <trkpt lat="45.21381" lon="5.56798">
        <ele>1323</ele>
        <time>2010-01-01T06:14:51Z</time>
      </trkpt>
      <trkpt lat="45.21388" lon="5.56806">
        <ele>1322</ele>
        <time>2010-01-01T06:15:03Z</time>
      </trkpt>
      <trkpt lat="45.21394" lon="5.56811">
        <ele>1320</ele>
        <time>2010-01-01T06:15:12Z</time>
      </trkpt>
      <trkpt lat="45.21404" lon="5.56824">
        <ele>1318</ele>
        <time>2010-01-01T06:15:21Z</time>
      </trkpt>
      <trkpt lat="45.21418" lon="5.56829">
        <ele>1315</ele>
        <time>2010-01-01T06:15:21Z</time>
      </trkpt>
      <trkpt lat="45.21421" lon="5.5683">
        <ele>1315</ele>
        <time>2010-01-01T06:15:22Z</time>
      </trkpt>
      <trkpt lat="45.21424" lon="5.56831">
        <ele>1315</ele>
        <time>2010-01-01T06:15:32Z</time>
      </trkpt>
      <trkpt lat="45.21426" lon="5.56832">
        <ele>1314</ele>
        <time>2010-01-01T06:15:43Z</time>
      </trkpt>
      <trkpt lat="45.21438" lon="5.56832">
        <ele>1313</ele>
        <time>2010-01-01T06:15:46Z</time>
      </trkpt>
      <trkpt lat="45.21439" lon="5.56832">
        <ele>1312</ele>
        <time>2010-01-01T06:15:56Z</time>
      </trkpt>
      <trkpt lat="45.21444" lon="5.56831">
        <ele>1312</ele>
        <time>2010-01-01T06:16:02Z</time>
      </trkpt>
      <trkpt lat="45.21449" lon="5.56824">
        <ele>1312</ele>
        <time>2010-01-01T06:16:03Z</time>
      </trkpt>
      <trkpt lat="45.2145" lon="5.56811">
        <ele>1312</ele>
        <time>2010-01-01T06:16:04Z</time>
      </trkpt>
      <trkpt lat="45.21454" lon="5.56808">
        <ele>1312</ele>
        <time>2010-01-01T06:16:06Z</time>
      </trkpt>
      <trkpt lat="45.21466" lon="5.56799">
        <ele>1311</ele>
        <time>2010-01-01T06:16:06Z</time>
      </trkpt>
      <trkpt lat="45.21471" lon="5.56798">
        <ele>1310</ele>
        <time>2010-01-01T06:16:07Z</time>
      </trkpt>
      <trkpt lat="45.21485" lon="5.56784">
        <ele>1307</ele>
        <time>2010-01-01T06:16:12Z</time>
      </trkpt>
      <trkpt lat="45.21491" lon="5.56755">
        <ele>1312</ele>
        <time>2010-01-01T06:16:13Z</time>
      </trkpt>
      <trkpt lat="45.21498" lon="5.56744">
        <ele>1313</ele>
        <time>2010-01-01T06:16:16Z</time>
      </trkpt>
      <trkpt lat="45.21522" lon="5.56741">
        <ele>1309</ele>
        <time>2010-01-01T06:16:17Z</time>
      </trkpt>
      <trkpt lat="45.21543" lon="5.5674">
        <ele>1308</ele>
        <time>2010-01-01T06:16:22Z</time>
      </trkpt>
      <trkpt lat="45.21561" lon="5.56749">
        <ele>1305</ele>
        <time>2010-01-01T06:16:22Z</time>
      </trkpt>
      <trkpt lat="45.21589" lon="5.56776">
        <ele>1299</ele>
        <time>2010-01-01T06:16:23Z</time>
      </trkpt>
      <trkpt lat="45.21595" lon="5.56821">
        <ele>1297</ele>
        <time>2010-01-01T06:16:23Z</time>
      </trkpt>
      <trkpt lat="45.21595" lon="5.56822">
        <ele>1298</ele>
        <time>2010-01-01T06:16:27Z</time>
      </trkpt>
      <trkpt lat="45.21603" lon="5.56828">
        <ele>1299</ele>
        <time>2010-01-01T06:16:38Z</time>
      </trkpt>
      <trkpt lat="45.21644" lon="5.56835">
        <ele>1306</ele>
        <time>2010-01-01T06:16:48Z</time>
      </trkpt>
      <trkpt lat="45.21671" lon="5.56849">
        <ele>1311</ele>
        <time>2010-01-01T06:16:52Z</time>
      </trkpt>
      <trkpt lat="45.21699" lon="5.56852">
        <ele>1315</ele>
        <time>2010-01-01T06:16:53Z</time>
      </trkpt>
      <trkpt lat="45.21721" lon="5.56863">
        <ele>1318</ele>
        <time>2010-01-01T06:16:54Z</time>
      </trkpt>
      <trkpt lat="45.21785" lon="5.56908">
        <ele>1334</ele>
        <time>2010-01-01T06:16:54Z</time>
      </trkpt>
      <trkpt lat="45.21815" lon="5.56915">
        <ele>1340</ele>
        <time>2010-01-01T06:16:55Z</time>
      </trkpt>
      <trkpt lat="45.21848" lon="5.56918">
        <ele>1344</ele>
        <time>2010-01-01T06:16:56Z</time>
      </trkpt>
      <trkpt lat="45.21867" lon="5.5692">
        <ele>1345</ele>
        <time>2010-01-01T06:17:04Z</time>
      </trkpt>
      <trkpt lat="45.21888" lon="5.56901">
        <ele>1346</ele>
        <time>2010-01-01T06:17:15Z</time>
      </trkpt>
      <trkpt lat="45.21959" lon="5.56862">
        <ele>1350</ele>
        <time>2010-01-01T06:17:22Z</time>
      </trkpt>
      <trkpt lat="45.2196" lon="5.56862">
        <ele>1350</ele>
        <time>2010-01-01T06:17:26Z</time>
      </trkpt>
      <trkpt lat="45.21991" lon="5.56861">
        <ele>1348</ele>
        <time>2010-01-01T06:17:28Z</time>
      </trkpt>
      <trkpt lat="45.21996" lon="5.56848">
        <ele>1347</ele>
        <time>2010-01-01T06:17:34Z</time>
      </trkpt>
    </trkseg>
  </trk>
</gpx>